<?xml version="1.0" encoding="UTF-8" standalone="no" ?>
<gpx xmlns="http://www.topografix.com/GPX/1/1" xmlns:xsi="http://www.w3.org/2001/XMLSchema-instance" xsi:schemaLocation="http://www.topografix.com/GPX/1/1 http://www.topografix.com/GPX/1/1/gpx.xsd" version="1.1" creator="VisuGPX - https://www.visugpx.com">
  <metadata>
    <name>CORSE - PEDESTRE - Passerelle de Spasimata depuis Bonifatu</name>
    <desc><![CDATA[Comme dans le film]]></desc>
  </metadata>
  <wpt lat="42.44058" lon="8.86903">
    <ele>631.46704101562</ele>
    <name><![CDATA[016]]></name>
    <desc><![CDATA[28-JUN-15 9:19:23]]></desc>
    <cmt><![CDATA[28-JUN-15 9:19:23]]></cmt>
  </wpt>
  <wpt lat="42.43685" lon="8.87386">
    <ele>738.41284179688</ele>
    <name><![CDATA[017]]></name>
    <desc><![CDATA[28-JUN-15 9:35:57]]></desc>
    <cmt><![CDATA[28-JUN-15 9:35:57]]></cmt>
  </wpt>
  <wpt lat="42.42626" lon="8.90038">
    <ele>1272.4211425781</ele>
    <name><![CDATA[018]]></name>
    <desc><![CDATA[28-JUN-15 10:52:54]]></desc>
    <cmt><![CDATA[28-JUN-15 10:52:54]]></cmt>
  </wpt>
  <wpt lat="42.42433" lon="8.89799">
    <ele>1230.6040039062</ele>
    <name><![CDATA[019]]></name>
    <desc><![CDATA[28-JUN-15 13:09:05]]></desc>
    <cmt><![CDATA[28-JUN-15 13:09:05]]></cmt>
  </wpt>
  <wpt lat="42.43431" lon="8.88886">
    <ele>925.86840820312</ele>
    <name><![CDATA[020]]></name>
    <desc><![CDATA[28-JUN-15 14:05:46]]></desc>
    <cmt><![CDATA[28-JUN-15 14:05:46]]></cmt>
  </wpt>
  <trk>
    <name><![CDATA[ACTIVE LOG 011]]></name>
    <trkseg>
      <trkpt lat="42.43688" lon="8.8739">
        <ele>738.42993164062</ele>
        <time>2015-06-28T07:35:41Z</time>
      </trkpt>
      <trkpt lat="42.43688" lon="8.87388">
        <ele>738.42993164062</ele>
        <time>2015-06-28T07:35:42Z</time>
      </trkpt>
      <trkpt lat="42.43685" lon="8.87394">
        <ele>738.91064453125</ele>
        <time>2015-06-28T07:36:02Z</time>
      </trkpt>
      <trkpt lat="42.43681" lon="8.87397">
        <ele>738.91064453125</ele>
        <time>2015-06-28T07:36:07Z</time>
      </trkpt>
      <trkpt lat="42.43675" lon="8.874">
        <ele>740.8330078125</ele>
        <time>2015-06-28T07:36:16Z</time>
      </trkpt>
      <trkpt lat="42.43664" lon="8.87406">
        <ele>743.236328125</ele>
        <time>2015-06-28T07:36:33Z</time>
      </trkpt>
      <trkpt lat="42.43658" lon="8.87408">
        <ele>743.71704101562</ele>
        <time>2015-06-28T07:36:39Z</time>
      </trkpt>
      <trkpt lat="42.43649" lon="8.87426">
        <ele>745.6396484375</ele>
        <time>2015-06-28T07:36:52Z</time>
      </trkpt>
      <trkpt lat="42.43641" lon="8.87431">
        <ele>745.6396484375</ele>
        <time>2015-06-28T07:37:02Z</time>
      </trkpt>
      <trkpt lat="42.43632" lon="8.87447">
        <ele>747.08154296875</ele>
        <time>2015-06-28T07:37:17Z</time>
      </trkpt>
      <trkpt lat="42.43628" lon="8.87457">
        <ele>748.52368164062</ele>
        <time>2015-06-28T07:37:28Z</time>
      </trkpt>
      <trkpt lat="42.43621" lon="8.8747">
        <ele>749.48510742188</ele>
        <time>2015-06-28T07:37:41Z</time>
      </trkpt>
      <trkpt lat="42.43619" lon="8.87481">
        <ele>750.44653320312</ele>
        <time>2015-06-28T07:37:52Z</time>
      </trkpt>
      <trkpt lat="42.43613" lon="8.87496">
        <ele>752.36889648438</ele>
        <time>2015-06-28T07:38:06Z</time>
      </trkpt>
      <trkpt lat="42.43609" lon="8.87509">
        <ele>751.88842773438</ele>
        <time>2015-06-28T07:38:16Z</time>
      </trkpt>
      <trkpt lat="42.43601" lon="8.87533">
        <ele>754.77221679688</ele>
        <time>2015-06-28T07:38:43Z</time>
      </trkpt>
      <trkpt lat="42.4359" lon="8.87547">
        <ele>754.29174804688</ele>
        <time>2015-06-28T07:38:57Z</time>
      </trkpt>
      <trkpt lat="42.43581" lon="8.87561">
        <ele>754.29174804688</ele>
        <time>2015-06-28T07:39:07Z</time>
      </trkpt>
      <trkpt lat="42.43575" lon="8.87577">
        <ele>754.77221679688</ele>
        <time>2015-06-28T07:39:15Z</time>
      </trkpt>
      <trkpt lat="42.43574" lon="8.8758">
        <ele>755.73364257812</ele>
        <time>2015-06-28T07:39:17Z</time>
      </trkpt>
      <trkpt lat="42.43561" lon="8.87585">
        <ele>756.21411132812</ele>
        <time>2015-06-28T07:39:29Z</time>
      </trkpt>
      <trkpt lat="42.43563" lon="8.87595">
        <ele>758.13696289062</ele>
        <time>2015-06-28T07:39:38Z</time>
      </trkpt>
      <trkpt lat="42.4356" lon="8.87606">
        <ele>760.05932617188</ele>
        <time>2015-06-28T07:39:49Z</time>
      </trkpt>
      <trkpt lat="42.43554" lon="8.87614">
        <ele>761.02075195312</ele>
        <time>2015-06-28T07:40:00Z</time>
      </trkpt>
      <trkpt lat="42.43555" lon="8.87632">
        <ele>762.943359375</ele>
        <time>2015-06-28T07:40:16Z</time>
      </trkpt>
      <trkpt lat="42.43553" lon="8.87644">
        <ele>763.42407226562</ele>
        <time>2015-06-28T07:40:26Z</time>
      </trkpt>
      <trkpt lat="42.43552" lon="8.87647">
        <ele>764.38549804688</ele>
        <time>2015-06-28T07:40:29Z</time>
      </trkpt>
      <trkpt lat="42.43543" lon="8.87659">
        <ele>765.82763671875</ele>
        <time>2015-06-28T07:40:42Z</time>
      </trkpt>
      <trkpt lat="42.4353" lon="8.87665">
        <ele>766.30810546875</ele>
        <time>2015-06-28T07:40:57Z</time>
      </trkpt>
      <trkpt lat="42.43524" lon="8.87677">
        <ele>769.6728515625</ele>
        <time>2015-06-28T07:41:16Z</time>
      </trkpt>
      <trkpt lat="42.43507" lon="8.87682">
        <ele>771.59521484375</ele>
        <time>2015-06-28T07:41:42Z</time>
      </trkpt>
      <trkpt lat="42.435" lon="8.87686">
        <ele>772.556640625</ele>
        <time>2015-06-28T07:41:55Z</time>
      </trkpt>
      <trkpt lat="42.43491" lon="8.87691">
        <ele>775.92114257812</ele>
        <time>2015-06-28T07:42:10Z</time>
      </trkpt>
      <trkpt lat="42.43482" lon="8.87696">
        <ele>778.32446289062</ele>
        <time>2015-06-28T07:42:23Z</time>
      </trkpt>
      <trkpt lat="42.43473" lon="8.87699">
        <ele>781.20874023438</ele>
        <time>2015-06-28T07:42:38Z</time>
      </trkpt>
      <trkpt lat="42.43467" lon="8.87703">
        <ele>781.68920898438</ele>
        <time>2015-06-28T07:42:51Z</time>
      </trkpt>
      <trkpt lat="42.43464" lon="8.87713">
        <ele>783.13110351562</ele>
        <time>2015-06-28T07:43:03Z</time>
      </trkpt>
      <trkpt lat="42.43451" lon="8.87719">
        <ele>783.61181640625</ele>
        <time>2015-06-28T07:43:15Z</time>
      </trkpt>
      <trkpt lat="42.43444" lon="8.87722">
        <ele>787.45703125</ele>
        <time>2015-06-28T07:43:26Z</time>
      </trkpt>
      <trkpt lat="42.43442" lon="8.87738">
        <ele>789.37963867188</ele>
        <time>2015-06-28T07:43:41Z</time>
      </trkpt>
      <trkpt lat="42.43431" lon="8.87745">
        <ele>792.74438476562</ele>
        <time>2015-06-28T07:43:55Z</time>
      </trkpt>
      <trkpt lat="42.43423" lon="8.87752">
        <ele>796.10913085938</ele>
        <time>2015-06-28T07:44:13Z</time>
      </trkpt>
      <trkpt lat="42.43417" lon="8.87759">
        <ele>797.0703125</ele>
        <time>2015-06-28T07:44:27Z</time>
      </trkpt>
      <trkpt lat="42.43413" lon="8.87769">
        <ele>799.95434570312</ele>
        <time>2015-06-28T07:44:41Z</time>
      </trkpt>
      <trkpt lat="42.43405" lon="8.8777">
        <ele>800.91552734375</ele>
        <time>2015-06-28T07:44:49Z</time>
      </trkpt>
      <trkpt lat="42.43384" lon="8.87778">
        <ele>800.91552734375</ele>
        <time>2015-06-28T07:45:02Z</time>
      </trkpt>
      <trkpt lat="42.43382" lon="8.8778">
        <ele>799.95434570312</ele>
        <time>2015-06-28T07:45:04Z</time>
      </trkpt>
      <trkpt lat="42.43379" lon="8.87798">
        <ele>799.95434570312</ele>
        <time>2015-06-28T07:45:18Z</time>
      </trkpt>
      <trkpt lat="42.43383" lon="8.87807">
        <ele>798.99291992188</ele>
        <time>2015-06-28T07:45:33Z</time>
      </trkpt>
      <trkpt lat="42.43382" lon="8.87805">
        <ele>799.95434570312</ele>
        <time>2015-06-28T07:45:47Z</time>
      </trkpt>
      <trkpt lat="42.43385" lon="8.87808">
        <ele>801.876953125</ele>
        <time>2015-06-28T07:45:55Z</time>
      </trkpt>
      <trkpt lat="42.43391" lon="8.87814">
        <ele>802.83813476562</ele>
        <time>2015-06-28T07:46:07Z</time>
      </trkpt>
      <trkpt lat="42.43405" lon="8.87831">
        <ele>804.2802734375</ele>
        <time>2015-06-28T07:46:20Z</time>
      </trkpt>
      <trkpt lat="42.43406" lon="8.87847">
        <ele>804.7607421875</ele>
        <time>2015-06-28T07:46:38Z</time>
      </trkpt>
      <trkpt lat="42.43423" lon="8.87867">
        <ele>808.12548828125</ele>
        <time>2015-06-28T07:46:56Z</time>
      </trkpt>
      <trkpt lat="42.43429" lon="8.87887">
        <ele>810.0478515625</ele>
        <time>2015-06-28T07:47:12Z</time>
      </trkpt>
      <trkpt lat="42.43436" lon="8.87907">
        <ele>812.45141601562</ele>
        <time>2015-06-28T07:47:36Z</time>
      </trkpt>
      <trkpt lat="42.43438" lon="8.87912">
        <ele>812.93212890625</ele>
        <time>2015-06-28T07:47:39Z</time>
      </trkpt>
      <trkpt lat="42.43434" lon="8.87925">
        <ele>815.33544921875</ele>
        <time>2015-06-28T07:47:55Z</time>
      </trkpt>
      <trkpt lat="42.4344" lon="8.87954">
        <ele>817.25805664062</ele>
        <time>2015-06-28T07:48:16Z</time>
      </trkpt>
      <trkpt lat="42.43437" lon="8.87962">
        <ele>818.21923828125</ele>
        <time>2015-06-28T07:48:27Z</time>
      </trkpt>
      <trkpt lat="42.4344" lon="8.87977">
        <ele>821.10327148438</ele>
        <time>2015-06-28T07:48:39Z</time>
      </trkpt>
      <trkpt lat="42.43442" lon="8.87991">
        <ele>822.54516601562</ele>
        <time>2015-06-28T07:48:50Z</time>
      </trkpt>
      <trkpt lat="42.4345" lon="8.88002">
        <ele>823.50659179688</ele>
        <time>2015-06-28T07:48:55Z</time>
      </trkpt>
      <trkpt lat="42.43451" lon="8.8802">
        <ele>824.94848632812</ele>
        <time>2015-06-28T07:49:07Z</time>
      </trkpt>
      <trkpt lat="42.43449" lon="8.88026">
        <ele>824.4677734375</ele>
        <time>2015-06-28T07:49:12Z</time>
      </trkpt>
      <trkpt lat="42.43439" lon="8.88044">
        <ele>825.42895507812</ele>
        <time>2015-06-28T07:49:26Z</time>
      </trkpt>
      <trkpt lat="42.4344" lon="8.88054">
        <ele>825.42895507812</ele>
        <time>2015-06-28T07:49:33Z</time>
      </trkpt>
      <trkpt lat="42.4344" lon="8.88071">
        <ele>827.35180664062</ele>
        <time>2015-06-28T07:49:44Z</time>
      </trkpt>
      <trkpt lat="42.43429" lon="8.88084">
        <ele>828.7939453125</ele>
        <time>2015-06-28T07:49:56Z</time>
      </trkpt>
      <trkpt lat="42.43424" lon="8.88086">
        <ele>829.2744140625</ele>
        <time>2015-06-28T07:49:59Z</time>
      </trkpt>
      <trkpt lat="42.43422" lon="8.88093">
        <ele>830.23583984375</ele>
        <time>2015-06-28T07:50:04Z</time>
      </trkpt>
      <trkpt lat="42.43411" lon="8.88105">
        <ele>831.197265625</ele>
        <time>2015-06-28T07:50:16Z</time>
      </trkpt>
      <trkpt lat="42.4342" lon="8.88115">
        <ele>831.677734375</ele>
        <time>2015-06-28T07:50:21Z</time>
      </trkpt>
      <trkpt lat="42.43434" lon="8.88134">
        <ele>832.63916015625</ele>
        <time>2015-06-28T07:50:34Z</time>
      </trkpt>
      <trkpt lat="42.43415" lon="8.88139">
        <ele>833.11962890625</ele>
        <time>2015-06-28T07:50:45Z</time>
      </trkpt>
      <trkpt lat="42.43403" lon="8.88135">
        <ele>833.11962890625</ele>
        <time>2015-06-28T07:50:57Z</time>
      </trkpt>
      <trkpt lat="42.43397" lon="8.88142">
        <ele>834.0810546875</ele>
        <time>2015-06-28T07:51:05Z</time>
      </trkpt>
      <trkpt lat="42.43399" lon="8.88157">
        <ele>835.04248046875</ele>
        <time>2015-06-28T07:51:15Z</time>
      </trkpt>
      <trkpt lat="42.43402" lon="8.88166">
        <ele>836.484375</ele>
        <time>2015-06-28T07:51:19Z</time>
      </trkpt>
      <trkpt lat="42.4341" lon="8.88189">
        <ele>837.44555664062</ele>
        <time>2015-06-28T07:51:31Z</time>
      </trkpt>
      <trkpt lat="42.43408" lon="8.88204">
        <ele>838.8876953125</ele>
        <time>2015-06-28T07:51:42Z</time>
      </trkpt>
      <trkpt lat="42.4341" lon="8.88218">
        <ele>839.3681640625</ele>
        <time>2015-06-28T07:51:53Z</time>
      </trkpt>
      <trkpt lat="42.43403" lon="8.88229">
        <ele>840.81005859375</ele>
        <time>2015-06-28T07:52:07Z</time>
      </trkpt>
      <trkpt lat="42.43394" lon="8.88232">
        <ele>843.21337890625</ele>
        <time>2015-06-28T07:52:20Z</time>
      </trkpt>
      <trkpt lat="42.43388" lon="8.88241">
        <ele>843.69409179688</ele>
        <time>2015-06-28T07:52:30Z</time>
      </trkpt>
      <trkpt lat="42.43402" lon="8.88267">
        <ele>845.13623046875</ele>
        <time>2015-06-28T07:52:43Z</time>
      </trkpt>
      <trkpt lat="42.43401" lon="8.88273">
        <ele>845.13623046875</ele>
        <time>2015-06-28T07:52:46Z</time>
      </trkpt>
      <trkpt lat="42.43402" lon="8.88285">
        <ele>845.61694335938</ele>
        <time>2015-06-28T07:52:51Z</time>
      </trkpt>
      <trkpt lat="42.43396" lon="8.88301">
        <ele>846.09765625</ele>
        <time>2015-06-28T07:53:04Z</time>
      </trkpt>
      <trkpt lat="42.43403" lon="8.88316">
        <ele>845.61694335938</ele>
        <time>2015-06-28T07:53:11Z</time>
      </trkpt>
      <trkpt lat="42.43407" lon="8.88332">
        <ele>845.61694335938</ele>
        <time>2015-06-28T07:53:18Z</time>
      </trkpt>
      <trkpt lat="42.43402" lon="8.88347">
        <ele>847.05883789062</ele>
        <time>2015-06-28T07:53:34Z</time>
      </trkpt>
      <trkpt lat="42.43402" lon="8.88369">
        <ele>848.50073242188</ele>
        <time>2015-06-28T07:53:47Z</time>
      </trkpt>
      <trkpt lat="42.43404" lon="8.88376">
        <ele>848.50073242188</ele>
        <time>2015-06-28T07:53:50Z</time>
      </trkpt>
      <trkpt lat="42.43409" lon="8.8838">
        <ele>848.50073242188</ele>
        <time>2015-06-28T07:53:52Z</time>
      </trkpt>
      <trkpt lat="42.43416" lon="8.88392">
        <ele>849.94287109375</ele>
        <time>2015-06-28T07:53:59Z</time>
      </trkpt>
      <trkpt lat="42.43402" lon="8.88403">
        <ele>851.384765625</ele>
        <time>2015-06-28T07:54:16Z</time>
      </trkpt>
      <trkpt lat="42.43384" lon="8.88405">
        <ele>853.30737304688</ele>
        <time>2015-06-28T07:54:27Z</time>
      </trkpt>
      <trkpt lat="42.43382" lon="8.88406">
        <ele>853.7880859375</ele>
        <time>2015-06-28T07:54:29Z</time>
      </trkpt>
      <trkpt lat="42.43368" lon="8.88405">
        <ele>854.74926757812</ele>
        <time>2015-06-28T07:54:40Z</time>
      </trkpt>
      <trkpt lat="42.43383" lon="8.88408">
        <ele>854.74926757812</ele>
        <time>2015-06-28T07:54:58Z</time>
      </trkpt>
      <trkpt lat="42.43401" lon="8.88424">
        <ele>855.71069335938</ele>
        <time>2015-06-28T07:55:07Z</time>
      </trkpt>
      <trkpt lat="42.43396" lon="8.88435">
        <ele>858.11401367188</ele>
        <time>2015-06-28T07:55:22Z</time>
      </trkpt>
      <trkpt lat="42.43399" lon="8.88461">
        <ele>860.03662109375</ele>
        <time>2015-06-28T07:55:44Z</time>
      </trkpt>
      <trkpt lat="42.43399" lon="8.88474">
        <ele>861.95947265625</ele>
        <time>2015-06-28T07:55:59Z</time>
      </trkpt>
      <trkpt lat="42.43399" lon="8.88491">
        <ele>864.84326171875</ele>
        <time>2015-06-28T07:56:16Z</time>
      </trkpt>
      <trkpt lat="42.43401" lon="8.8852">
        <ele>866.28515625</ele>
        <time>2015-06-28T07:56:42Z</time>
      </trkpt>
      <trkpt lat="42.43393" lon="8.88517">
        <ele>867.24658203125</ele>
        <time>2015-06-28T07:56:53Z</time>
      </trkpt>
      <trkpt lat="42.43381" lon="8.88522">
        <ele>868.6884765625</ele>
        <time>2015-06-28T07:57:14Z</time>
      </trkpt>
      <trkpt lat="42.4339" lon="8.88532">
        <ele>871.091796875</ele>
        <time>2015-06-28T07:57:25Z</time>
      </trkpt>
      <trkpt lat="42.43405" lon="8.88555">
        <ele>873.9755859375</ele>
        <time>2015-06-28T07:57:49Z</time>
      </trkpt>
      <trkpt lat="42.4342" lon="8.88585">
        <ele>876.85986328125</ele>
        <time>2015-06-28T07:58:13Z</time>
      </trkpt>
      <trkpt lat="42.43437" lon="8.88604">
        <ele>880.22436523438</ele>
        <time>2015-06-28T07:58:29Z</time>
      </trkpt>
      <trkpt lat="42.43441" lon="8.88624">
        <ele>883.10815429688</ele>
        <time>2015-06-28T07:58:44Z</time>
      </trkpt>
      <trkpt lat="42.43439" lon="8.8863">
        <ele>884.55029296875</ele>
        <time>2015-06-28T07:58:49Z</time>
      </trkpt>
      <trkpt lat="42.43436" lon="8.88631">
        <ele>885.03100585938</ele>
        <time>2015-06-28T07:58:51Z</time>
      </trkpt>
      <trkpt lat="42.43419" lon="8.88633">
        <ele>886.95336914062</ele>
        <time>2015-06-28T07:59:05Z</time>
      </trkpt>
      <trkpt lat="42.43404" lon="8.88636">
        <ele>889.35668945312</ele>
        <time>2015-06-28T07:59:22Z</time>
      </trkpt>
      <trkpt lat="42.43429" lon="8.88684">
        <ele>892.24096679688</ele>
        <time>2015-06-28T07:59:59Z</time>
      </trkpt>
      <trkpt lat="42.43448" lon="8.88716">
        <ele>895.60546875</ele>
        <time>2015-06-28T08:00:27Z</time>
      </trkpt>
      <trkpt lat="42.43443" lon="8.88727">
        <ele>897.52807617188</ele>
        <time>2015-06-28T08:00:41Z</time>
      </trkpt>
      <trkpt lat="42.43441" lon="8.88738">
        <ele>898.96997070312</ele>
        <time>2015-06-28T08:00:54Z</time>
      </trkpt>
      <trkpt lat="42.43445" lon="8.88756">
        <ele>900.412109375</ele>
        <time>2015-06-28T08:01:05Z</time>
      </trkpt>
      <trkpt lat="42.43443" lon="8.88768">
        <ele>901.37329101562</ele>
        <time>2015-06-28T08:01:18Z</time>
      </trkpt>
      <trkpt lat="42.43444" lon="8.88791">
        <ele>904.25732421875</ele>
        <time>2015-06-28T08:01:39Z</time>
      </trkpt>
      <trkpt lat="42.43436" lon="8.88802">
        <ele>905.21850585938</ele>
        <time>2015-06-28T08:01:48Z</time>
      </trkpt>
      <trkpt lat="42.43438" lon="8.88815">
        <ele>907.62182617188</ele>
        <time>2015-06-28T08:02:01Z</time>
      </trkpt>
      <trkpt lat="42.43434" lon="8.88822">
        <ele>908.10278320312</ele>
        <time>2015-06-28T08:02:09Z</time>
      </trkpt>
      <trkpt lat="42.43436" lon="8.88838">
        <ele>910.02514648438</ele>
        <time>2015-06-28T08:02:23Z</time>
      </trkpt>
      <trkpt lat="42.43438" lon="8.88847">
        <ele>912.42846679688</ele>
        <time>2015-06-28T08:02:32Z</time>
      </trkpt>
      <trkpt lat="42.43447" lon="8.88871">
        <ele>913.38989257812</ele>
        <time>2015-06-28T08:02:46Z</time>
      </trkpt>
      <trkpt lat="42.43431" lon="8.88884">
        <ele>912.9091796875</ele>
        <time>2015-06-28T08:03:00Z</time>
      </trkpt>
      <trkpt lat="42.43425" lon="8.88897">
        <ele>912.9091796875</ele>
        <time>2015-06-28T08:03:24Z</time>
      </trkpt>
      <trkpt lat="42.43435" lon="8.88893">
        <ele>913.38989257812</ele>
        <time>2015-06-28T08:03:44Z</time>
      </trkpt>
      <trkpt lat="42.43437" lon="8.889">
        <ele>912.9091796875</ele>
        <time>2015-06-28T08:03:57Z</time>
      </trkpt>
      <trkpt lat="42.43437" lon="8.88904">
        <ele>912.42846679688</ele>
        <time>2015-06-28T08:04:08Z</time>
      </trkpt>
      <trkpt lat="42.43447" lon="8.88916">
        <ele>914.35107421875</ele>
        <time>2015-06-28T08:04:21Z</time>
      </trkpt>
      <trkpt lat="42.4344" lon="8.88927">
        <ele>917.71557617188</ele>
        <time>2015-06-28T08:04:40Z</time>
      </trkpt>
      <trkpt lat="42.4344" lon="8.88931">
        <ele>917.23510742188</ele>
        <time>2015-06-28T08:04:43Z</time>
      </trkpt>
      <trkpt lat="42.43434" lon="8.88938">
        <ele>918.67700195312</ele>
        <time>2015-06-28T08:04:55Z</time>
      </trkpt>
      <trkpt lat="42.43428" lon="8.88949">
        <ele>922.04150390625</ele>
        <time>2015-06-28T08:05:09Z</time>
      </trkpt>
      <trkpt lat="42.43426" lon="8.88973">
        <ele>925.40625</ele>
        <time>2015-06-28T08:05:35Z</time>
      </trkpt>
      <trkpt lat="42.43425" lon="8.88988">
        <ele>928.29028320312</ele>
        <time>2015-06-28T08:05:53Z</time>
      </trkpt>
      <trkpt lat="42.4342" lon="8.88978">
        <ele>931.65478515625</ele>
        <time>2015-06-28T08:06:09Z</time>
      </trkpt>
      <trkpt lat="42.43429" lon="8.88966">
        <ele>932.6162109375</ele>
        <time>2015-06-28T08:06:32Z</time>
      </trkpt>
      <trkpt lat="42.43438" lon="8.88971">
        <ele>935.98071289062</ele>
        <time>2015-06-28T08:06:50Z</time>
      </trkpt>
      <trkpt lat="42.43444" lon="8.88996">
        <ele>939.34521484375</ele>
        <time>2015-06-28T08:07:06Z</time>
      </trkpt>
      <trkpt lat="42.43439" lon="8.8902">
        <ele>942.2294921875</ele>
        <time>2015-06-28T08:07:28Z</time>
      </trkpt>
      <trkpt lat="42.43429" lon="8.89032">
        <ele>945.11328125</ele>
        <time>2015-06-28T08:07:44Z</time>
      </trkpt>
      <trkpt lat="42.43426" lon="8.89044">
        <ele>946.07470703125</ele>
        <time>2015-06-28T08:07:55Z</time>
      </trkpt>
      <trkpt lat="42.43415" lon="8.89071">
        <ele>948.95849609375</ele>
        <time>2015-06-28T08:08:21Z</time>
      </trkpt>
      <trkpt lat="42.43412" lon="8.89086">
        <ele>952.32299804688</ele>
        <time>2015-06-28T08:08:39Z</time>
      </trkpt>
      <trkpt lat="42.43404" lon="8.89096">
        <ele>953.76513671875</ele>
        <time>2015-06-28T08:08:51Z</time>
      </trkpt>
      <trkpt lat="42.43406" lon="8.89104">
        <ele>956.64916992188</ele>
        <time>2015-06-28T08:09:09Z</time>
      </trkpt>
      <trkpt lat="42.43404" lon="8.89113">
        <ele>959.05249023438</ele>
        <time>2015-06-28T08:09:23Z</time>
      </trkpt>
      <trkpt lat="42.43401" lon="8.89126">
        <ele>960.97509765625</ele>
        <time>2015-06-28T08:09:41Z</time>
      </trkpt>
      <trkpt lat="42.434" lon="8.89138">
        <ele>964.33959960938</ele>
        <time>2015-06-28T08:09:55Z</time>
      </trkpt>
      <trkpt lat="42.43406" lon="8.8916">
        <ele>967.7041015625</ele>
        <time>2015-06-28T08:10:17Z</time>
      </trkpt>
      <trkpt lat="42.43411" lon="8.89168">
        <ele>967.7041015625</ele>
        <time>2015-06-28T08:10:24Z</time>
      </trkpt>
      <trkpt lat="42.43408" lon="8.89188">
        <ele>968.18481445312</ele>
        <time>2015-06-28T08:10:43Z</time>
      </trkpt>
      <trkpt lat="42.43415" lon="8.89206">
        <ele>971.06884765625</ele>
        <time>2015-06-28T08:11:05Z</time>
      </trkpt>
      <trkpt lat="42.43407" lon="8.89214">
        <ele>972.0302734375</ele>
        <time>2015-06-28T08:11:14Z</time>
      </trkpt>
      <trkpt lat="42.43391" lon="8.89218">
        <ele>972.0302734375</ele>
        <time>2015-06-28T08:11:27Z</time>
      </trkpt>
      <trkpt lat="42.43387" lon="8.89221">
        <ele>976.35620117188</ele>
        <time>2015-06-28T08:11:37Z</time>
      </trkpt>
      <trkpt lat="42.43386" lon="8.89222">
        <ele>975.87548828125</ele>
        <time>2015-06-28T08:11:38Z</time>
      </trkpt>
      <trkpt lat="42.43379" lon="8.89239">
        <ele>978.75952148438</ele>
        <time>2015-06-28T08:11:54Z</time>
      </trkpt>
      <trkpt lat="42.43373" lon="8.89251">
        <ele>979.23999023438</ele>
        <time>2015-06-28T08:12:08Z</time>
      </trkpt>
      <trkpt lat="42.43363" lon="8.8926">
        <ele>976.8369140625</ele>
        <time>2015-06-28T08:12:35Z</time>
      </trkpt>
      <trkpt lat="42.43356" lon="8.89257">
        <ele>977.79809570312</ele>
        <time>2015-06-28T08:12:51Z</time>
      </trkpt>
      <trkpt lat="42.43351" lon="8.89262">
        <ele>979.23999023438</ele>
        <time>2015-06-28T08:13:03Z</time>
      </trkpt>
      <trkpt lat="42.43345" lon="8.89259">
        <ele>982.1240234375</ele>
        <time>2015-06-28T08:13:14Z</time>
      </trkpt>
      <trkpt lat="42.43339" lon="8.89273">
        <ele>985.00805664062</ele>
        <time>2015-06-28T08:13:42Z</time>
      </trkpt>
      <trkpt lat="42.43318" lon="8.89276">
        <ele>988.37280273438</ele>
        <time>2015-06-28T08:14:08Z</time>
      </trkpt>
      <trkpt lat="42.4331" lon="8.89277">
        <ele>991.25659179688</ele>
        <time>2015-06-28T08:14:29Z</time>
      </trkpt>
      <trkpt lat="42.43288" lon="8.89276">
        <ele>994.140625</ele>
        <time>2015-06-28T08:14:55Z</time>
      </trkpt>
      <trkpt lat="42.43278" lon="8.89269">
        <ele>997.50512695312</ele>
        <time>2015-06-28T08:15:09Z</time>
      </trkpt>
      <trkpt lat="42.43282" lon="8.89272">
        <ele>998.46630859375</ele>
        <time>2015-06-28T08:15:15Z</time>
      </trkpt>
      <trkpt lat="42.43272" lon="8.89271">
        <ele>1000.3891601562</ele>
        <time>2015-06-28T08:15:26Z</time>
      </trkpt>
      <trkpt lat="42.43262" lon="8.8927">
        <ele>1002.7922363281</ele>
        <time>2015-06-28T08:15:46Z</time>
      </trkpt>
      <trkpt lat="42.43256" lon="8.8927">
        <ele>1004.7150878906</ele>
        <time>2015-06-28T08:16:00Z</time>
      </trkpt>
      <trkpt lat="42.43249" lon="8.89262">
        <ele>1007.5991210938</ele>
        <time>2015-06-28T08:16:26Z</time>
      </trkpt>
      <trkpt lat="42.43251" lon="8.89276">
        <ele>1010.9636230469</ele>
        <time>2015-06-28T08:16:47Z</time>
      </trkpt>
      <trkpt lat="42.4324" lon="8.89279">
        <ele>1013.8474121094</ele>
        <time>2015-06-28T08:17:01Z</time>
      </trkpt>
      <trkpt lat="42.43227" lon="8.8929">
        <ele>1016.7314453125</ele>
        <time>2015-06-28T08:17:25Z</time>
      </trkpt>
      <trkpt lat="42.43216" lon="8.89289">
        <ele>1019.134765625</ele>
        <time>2015-06-28T08:17:39Z</time>
      </trkpt>
      <trkpt lat="42.43211" lon="8.8929">
        <ele>1019.6154785156</ele>
        <time>2015-06-28T08:17:45Z</time>
      </trkpt>
      <trkpt lat="42.43199" lon="8.89296">
        <ele>1021.0576171875</ele>
        <time>2015-06-28T08:18:02Z</time>
      </trkpt>
      <trkpt lat="42.43196" lon="8.89298">
        <ele>1024.4221191406</ele>
        <time>2015-06-28T08:18:14Z</time>
      </trkpt>
      <trkpt lat="42.43185" lon="8.89303">
        <ele>1026.3447265625</ele>
        <time>2015-06-28T08:18:28Z</time>
      </trkpt>
      <trkpt lat="42.43181" lon="8.89301">
        <ele>1027.3061523438</ele>
        <time>2015-06-28T08:18:31Z</time>
      </trkpt>
      <trkpt lat="42.43178" lon="8.89305">
        <ele>1030.6706542969</ele>
        <time>2015-06-28T08:18:46Z</time>
      </trkpt>
      <trkpt lat="42.43168" lon="8.8931">
        <ele>1033.5544433594</ele>
        <time>2015-06-28T08:19:04Z</time>
      </trkpt>
      <trkpt lat="42.4316" lon="8.89313">
        <ele>1036.4387207031</ele>
        <time>2015-06-28T08:19:26Z</time>
      </trkpt>
      <trkpt lat="42.43156" lon="8.89315">
        <ele>1038.361328125</ele>
        <time>2015-06-28T08:19:38Z</time>
      </trkpt>
      <trkpt lat="42.43146" lon="8.89311">
        <ele>1039.3225097656</ele>
        <time>2015-06-28T08:19:51Z</time>
      </trkpt>
      <trkpt lat="42.43137" lon="8.89314">
        <ele>1041.2451171875</ele>
        <time>2015-06-28T08:20:02Z</time>
      </trkpt>
      <trkpt lat="42.43133" lon="8.89318">
        <ele>1044.1291503906</ele>
        <time>2015-06-28T08:20:09Z</time>
      </trkpt>
      <trkpt lat="42.43125" lon="8.89323">
        <ele>1046.0517578125</ele>
        <time>2015-06-28T08:20:21Z</time>
      </trkpt>
      <trkpt lat="42.43117" lon="8.89325">
        <ele>1047.9743652344</ele>
        <time>2015-06-28T08:20:35Z</time>
      </trkpt>
      <trkpt lat="42.43117" lon="8.89325">
        <ele>1047.9743652344</ele>
        <time>2015-06-28T08:20:38Z</time>
      </trkpt>
      <trkpt lat="42.431" lon="8.89316">
        <ele>1049.4162597656</ele>
        <time>2015-06-28T08:20:52Z</time>
      </trkpt>
      <trkpt lat="42.43095" lon="8.89331">
        <ele>1052.3002929688</ele>
        <time>2015-06-28T08:21:11Z</time>
      </trkpt>
      <trkpt lat="42.43096" lon="8.89334">
        <ele>1054.7036132812</ele>
        <time>2015-06-28T08:21:23Z</time>
      </trkpt>
      <trkpt lat="42.43089" lon="8.89342">
        <ele>1058.068359375</ele>
        <time>2015-06-28T08:21:41Z</time>
      </trkpt>
      <trkpt lat="42.43081" lon="8.8935">
        <ele>1060.4714355469</ele>
        <time>2015-06-28T08:21:57Z</time>
      </trkpt>
      <trkpt lat="42.43067" lon="8.89347">
        <ele>1062.3940429688</ele>
        <time>2015-06-28T08:22:11Z</time>
      </trkpt>
      <trkpt lat="42.43057" lon="8.89342">
        <ele>1063.8359375</ele>
        <time>2015-06-28T08:22:20Z</time>
      </trkpt>
      <trkpt lat="42.4305" lon="8.89357">
        <ele>1065.7587890625</ele>
        <time>2015-06-28T08:22:38Z</time>
      </trkpt>
      <trkpt lat="42.43045" lon="8.89361">
        <ele>1067.2006835938</ele>
        <time>2015-06-28T08:22:49Z</time>
      </trkpt>
      <trkpt lat="42.43037" lon="8.89368">
        <ele>1070.5654296875</ele>
        <time>2015-06-28T08:23:05Z</time>
      </trkpt>
      <trkpt lat="42.43036" lon="8.89368">
        <ele>1070.5654296875</ele>
        <time>2015-06-28T08:23:06Z</time>
      </trkpt>
      <trkpt lat="42.43029" lon="8.89375">
        <ele>1072.96875</ele>
        <time>2015-06-28T08:23:19Z</time>
      </trkpt>
      <trkpt lat="42.43021" lon="8.89378">
        <ele>1073.4494628906</ele>
        <time>2015-06-28T08:23:27Z</time>
      </trkpt>
      <trkpt lat="42.4302" lon="8.89378">
        <ele>1072.96875</ele>
        <time>2015-06-28T08:23:28Z</time>
      </trkpt>
      <trkpt lat="42.43013" lon="8.89385">
        <ele>1074.8913574219</ele>
        <time>2015-06-28T08:23:40Z</time>
      </trkpt>
      <trkpt lat="42.43006" lon="8.8939">
        <ele>1077.2946777344</ele>
        <time>2015-06-28T08:23:51Z</time>
      </trkpt>
      <trkpt lat="42.43" lon="8.89391">
        <ele>1078.255859375</ele>
        <time>2015-06-28T08:24:02Z</time>
      </trkpt>
      <trkpt lat="42.43004" lon="8.894">
        <ele>1080.1784667969</ele>
        <time>2015-06-28T08:24:17Z</time>
      </trkpt>
      <trkpt lat="42.43001" lon="8.89402">
        <ele>1082.1010742188</ele>
        <time>2015-06-28T08:24:25Z</time>
      </trkpt>
      <trkpt lat="42.4299" lon="8.89407">
        <ele>1084.0239257812</ele>
        <time>2015-06-28T08:24:41Z</time>
      </trkpt>
      <trkpt lat="42.42982" lon="8.89408">
        <ele>1086.4272460938</ele>
        <time>2015-06-28T08:24:55Z</time>
      </trkpt>
      <trkpt lat="42.42978" lon="8.89418">
        <ele>1088.8305664062</ele>
        <time>2015-06-28T08:25:10Z</time>
      </trkpt>
      <trkpt lat="42.42965" lon="8.89417">
        <ele>1090.2724609375</ele>
        <time>2015-06-28T08:25:23Z</time>
      </trkpt>
      <trkpt lat="42.4297" lon="8.89431">
        <ele>1093.15625</ele>
        <time>2015-06-28T08:25:42Z</time>
      </trkpt>
      <trkpt lat="42.42966" lon="8.89436">
        <ele>1096.0402832031</ele>
        <time>2015-06-28T08:25:55Z</time>
      </trkpt>
      <trkpt lat="42.42961" lon="8.89441">
        <ele>1099.4047851562</ele>
        <time>2015-06-28T08:26:18Z</time>
      </trkpt>
      <trkpt lat="42.42957" lon="8.89449">
        <ele>1100.8469238281</ele>
        <time>2015-06-28T08:26:33Z</time>
      </trkpt>
      <trkpt lat="42.42951" lon="8.89451">
        <ele>1102.76953125</ele>
        <time>2015-06-28T08:26:39Z</time>
      </trkpt>
      <trkpt lat="42.4295" lon="8.89458">
        <ele>1104.6921386719</ele>
        <time>2015-06-28T08:26:54Z</time>
      </trkpt>
      <trkpt lat="42.42942" lon="8.89465">
        <ele>1107.0954589844</ele>
        <time>2015-06-28T08:27:11Z</time>
      </trkpt>
      <trkpt lat="42.42936" lon="8.89468">
        <ele>1108.5373535156</ele>
        <time>2015-06-28T08:27:24Z</time>
      </trkpt>
      <trkpt lat="42.42937" lon="8.89476">
        <ele>1111.4213867188</ele>
        <time>2015-06-28T08:27:39Z</time>
      </trkpt>
      <trkpt lat="42.42934" lon="8.89487">
        <ele>1112.3825683594</ele>
        <time>2015-06-28T08:27:58Z</time>
      </trkpt>
      <trkpt lat="42.42932" lon="8.895">
        <ele>1115.7473144531</ele>
        <time>2015-06-28T08:28:15Z</time>
      </trkpt>
      <trkpt lat="42.42926" lon="8.89511">
        <ele>1118.1506347656</ele>
        <time>2015-06-28T08:28:36Z</time>
      </trkpt>
      <trkpt lat="42.42918" lon="8.89516">
        <ele>1119.1120605469</ele>
        <time>2015-06-28T08:28:47Z</time>
      </trkpt>
      <trkpt lat="42.42917" lon="8.89523">
        <ele>1121.0346679688</ele>
        <time>2015-06-28T08:29:00Z</time>
      </trkpt>
      <trkpt lat="42.42914" lon="8.89532">
        <ele>1121.9958496094</ele>
        <time>2015-06-28T08:29:14Z</time>
      </trkpt>
      <trkpt lat="42.4291" lon="8.89543">
        <ele>1124.8798828125</ele>
        <time>2015-06-28T08:29:31Z</time>
      </trkpt>
    </trkseg>
  </trk>
  <trk>
    <name><![CDATA[ACTIVE LOG 012]]></name>
    <trkseg>
      <trkpt lat="42.42907" lon="8.89551">
        <ele>1127.283203125</ele>
        <time>2015-06-28T08:29:43Z</time>
      </trkpt>
    </trkseg>
  </trk>
  <trk>
    <name><![CDATA[ACTIVE LOG 013]]></name>
    <trkseg>
      <trkpt lat="42.42907" lon="8.89548">
        <ele>1128.7250976562</ele>
        <time>2015-06-28T08:29:46Z</time>
      </trkpt>
      <trkpt lat="42.42909" lon="8.89548">
        <ele>1129.6862792969</ele>
        <time>2015-06-28T08:30:03Z</time>
      </trkpt>
      <trkpt lat="42.42909" lon="8.8956">
        <ele>1131.1284179688</ele>
        <time>2015-06-28T08:30:16Z</time>
      </trkpt>
      <trkpt lat="42.42911" lon="8.89567">
        <ele>1134.4931640625</ele>
        <time>2015-06-28T08:30:32Z</time>
      </trkpt>
      <trkpt lat="42.42915" lon="8.89576">
        <ele>1135.9350585938</ele>
        <time>2015-06-28T08:30:43Z</time>
      </trkpt>
      <trkpt lat="42.42906" lon="8.89583">
        <ele>1138.3383789062</ele>
        <time>2015-06-28T08:31:00Z</time>
      </trkpt>
      <trkpt lat="42.42892" lon="8.89585">
        <ele>1141.2221679688</ele>
        <time>2015-06-28T08:31:16Z</time>
      </trkpt>
      <trkpt lat="42.42883" lon="8.89591">
        <ele>1142.18359375</ele>
        <time>2015-06-28T08:31:32Z</time>
      </trkpt>
      <trkpt lat="42.42884" lon="8.89592">
        <ele>1145.0673828125</ele>
        <time>2015-06-28T08:31:54Z</time>
      </trkpt>
      <trkpt lat="42.42881" lon="8.89607">
        <ele>1146.9899902344</ele>
        <time>2015-06-28T08:32:11Z</time>
      </trkpt>
      <trkpt lat="42.42873" lon="8.89614">
        <ele>1149.3935546875</ele>
        <time>2015-06-28T08:32:28Z</time>
      </trkpt>
      <trkpt lat="42.42862" lon="8.89621">
        <ele>1150.8354492188</ele>
        <time>2015-06-28T08:32:42Z</time>
      </trkpt>
      <trkpt lat="42.42854" lon="8.89622">
        <ele>1151.796875</ele>
        <time>2015-06-28T08:32:49Z</time>
      </trkpt>
      <trkpt lat="42.42841" lon="8.89623">
        <ele>1154.6806640625</ele>
        <time>2015-06-28T08:33:00Z</time>
      </trkpt>
      <trkpt lat="42.42842" lon="8.89636">
        <ele>1155.1613769531</ele>
        <time>2015-06-28T08:33:13Z</time>
      </trkpt>
      <trkpt lat="42.42831" lon="8.89643">
        <ele>1156.1225585938</ele>
        <time>2015-06-28T08:33:33Z</time>
      </trkpt>
      <trkpt lat="42.42823" lon="8.89644">
        <ele>1154.6806640625</ele>
        <time>2015-06-28T08:33:48Z</time>
      </trkpt>
      <trkpt lat="42.42816" lon="8.89652">
        <ele>1152.27734375</ele>
        <time>2015-06-28T08:34:00Z</time>
      </trkpt>
      <trkpt lat="42.42809" lon="8.89662">
        <ele>1151.3161621094</ele>
        <time>2015-06-28T08:34:12Z</time>
      </trkpt>
      <trkpt lat="42.428" lon="8.89669">
        <ele>1151.796875</ele>
        <time>2015-06-28T08:34:25Z</time>
      </trkpt>
      <trkpt lat="42.42788" lon="8.89671">
        <ele>1151.796875</ele>
        <time>2015-06-28T08:34:34Z</time>
      </trkpt>
      <trkpt lat="42.42772" lon="8.89668">
        <ele>1152.27734375</ele>
        <time>2015-06-28T08:34:49Z</time>
      </trkpt>
      <trkpt lat="42.42771" lon="8.89671">
        <ele>1155.6420898438</ele>
        <time>2015-06-28T08:35:04Z</time>
      </trkpt>
      <trkpt lat="42.42767" lon="8.89682">
        <ele>1158.0454101562</ele>
        <time>2015-06-28T08:35:17Z</time>
      </trkpt>
      <trkpt lat="42.42766" lon="8.89694">
        <ele>1158.5258789062</ele>
        <time>2015-06-28T08:35:28Z</time>
      </trkpt>
      <trkpt lat="42.42771" lon="8.89691">
        <ele>1160.4484863281</ele>
        <time>2015-06-28T08:35:42Z</time>
      </trkpt>
      <trkpt lat="42.42766" lon="8.89702">
        <ele>1161.4099121094</ele>
        <time>2015-06-28T08:35:56Z</time>
      </trkpt>
      <trkpt lat="42.4276" lon="8.89705">
        <ele>1163.8129882812</ele>
        <time>2015-06-28T08:36:11Z</time>
      </trkpt>
      <trkpt lat="42.42752" lon="8.89714">
        <ele>1165.7360839844</ele>
        <time>2015-06-28T08:36:25Z</time>
      </trkpt>
      <trkpt lat="42.42748" lon="8.89725">
        <ele>1166.2165527344</ele>
        <time>2015-06-28T08:36:36Z</time>
      </trkpt>
      <trkpt lat="42.42743" lon="8.89729">
        <ele>1165.2553710938</ele>
        <time>2015-06-28T08:36:48Z</time>
      </trkpt>
      <trkpt lat="42.4274" lon="8.8973">
        <ele>1165.7360839844</ele>
        <time>2015-06-28T08:36:54Z</time>
      </trkpt>
      <trkpt lat="42.42734" lon="8.89732">
        <ele>1164.2939453125</ele>
        <time>2015-06-28T08:37:02Z</time>
      </trkpt>
      <trkpt lat="42.4273" lon="8.89734">
        <ele>1164.2939453125</ele>
        <time>2015-06-28T08:37:07Z</time>
      </trkpt>
      <trkpt lat="42.42719" lon="8.89741">
        <ele>1164.2939453125</ele>
        <time>2015-06-28T08:37:19Z</time>
      </trkpt>
      <trkpt lat="42.42714" lon="8.89743">
        <ele>1163.8129882812</ele>
        <time>2015-06-28T08:37:26Z</time>
      </trkpt>
      <trkpt lat="42.42703" lon="8.89752">
        <ele>1163.3325195312</ele>
        <time>2015-06-28T08:37:40Z</time>
      </trkpt>
      <trkpt lat="42.4269" lon="8.8976">
        <ele>1162.37109375</ele>
        <time>2015-06-28T08:37:59Z</time>
      </trkpt>
      <trkpt lat="42.42684" lon="8.89762">
        <ele>1161.890625</ele>
        <time>2015-06-28T08:38:15Z</time>
      </trkpt>
      <trkpt lat="42.42681" lon="8.89758">
        <ele>1161.890625</ele>
        <time>2015-06-28T08:38:40Z</time>
      </trkpt>
      <trkpt lat="42.42679" lon="8.89762">
        <ele>1163.8129882812</ele>
        <time>2015-06-28T08:38:48Z</time>
      </trkpt>
      <trkpt lat="42.42672" lon="8.89761">
        <ele>1165.2553710938</ele>
        <time>2015-06-28T08:39:01Z</time>
      </trkpt>
      <trkpt lat="42.42676" lon="8.89764">
        <ele>1167.6584472656</ele>
        <time>2015-06-28T08:39:17Z</time>
      </trkpt>
      <trkpt lat="42.42677" lon="8.89767">
        <ele>1169.5812988281</ele>
        <time>2015-06-28T08:39:25Z</time>
      </trkpt>
      <trkpt lat="42.42676" lon="8.89768">
        <ele>1170.5424804688</ele>
        <time>2015-06-28T08:39:26Z</time>
      </trkpt>
      <trkpt lat="42.42681" lon="8.89778">
        <ele>1171.984375</ele>
        <time>2015-06-28T08:39:41Z</time>
      </trkpt>
      <trkpt lat="42.42676" lon="8.89782">
        <ele>1174.3876953125</ele>
        <time>2015-06-28T08:39:57Z</time>
      </trkpt>
      <trkpt lat="42.42674" lon="8.89785">
        <ele>1175.8295898438</ele>
        <time>2015-06-28T08:40:14Z</time>
      </trkpt>
      <trkpt lat="42.42664" lon="8.89785">
        <ele>1178.2329101562</ele>
        <time>2015-06-28T08:40:29Z</time>
      </trkpt>
      <trkpt lat="42.42663" lon="8.89785">
        <ele>1179.6748046875</ele>
        <time>2015-06-28T08:40:40Z</time>
      </trkpt>
      <trkpt lat="42.4267" lon="8.89794">
        <ele>1181.59765625</ele>
        <time>2015-06-28T08:40:51Z</time>
      </trkpt>
      <trkpt lat="42.42679" lon="8.89807">
        <ele>1183.0395507812</ele>
        <time>2015-06-28T08:41:03Z</time>
      </trkpt>
      <trkpt lat="42.42682" lon="8.89819">
        <ele>1184.9624023438</ele>
        <time>2015-06-28T08:41:12Z</time>
      </trkpt>
      <trkpt lat="42.42692" lon="8.89827">
        <ele>1185.4428710938</ele>
        <time>2015-06-28T08:41:23Z</time>
      </trkpt>
      <trkpt lat="42.42696" lon="8.89833">
        <ele>1185.9235839844</ele>
        <time>2015-06-28T08:41:33Z</time>
      </trkpt>
      <trkpt lat="42.42695" lon="8.89834">
        <ele>1185.9235839844</ele>
        <time>2015-06-28T08:41:34Z</time>
      </trkpt>
      <trkpt lat="42.42669" lon="8.89828">
        <ele>1188.3269042969</ele>
        <time>2015-06-28T08:41:47Z</time>
      </trkpt>
      <trkpt lat="42.42659" lon="8.89823">
        <ele>1189.7687988281</ele>
        <time>2015-06-28T08:41:58Z</time>
      </trkpt>
      <trkpt lat="42.42649" lon="8.8981">
        <ele>1191.2106933594</ele>
        <time>2015-06-28T08:42:09Z</time>
      </trkpt>
      <trkpt lat="42.42651" lon="8.89805">
        <ele>1193.6140136719</ele>
        <time>2015-06-28T08:42:32Z</time>
      </trkpt>
      <trkpt lat="42.42646" lon="8.89808">
        <ele>1196.017578125</ele>
        <time>2015-06-28T08:42:44Z</time>
      </trkpt>
      <trkpt lat="42.42641" lon="8.89814">
        <ele>1198.4206542969</ele>
        <time>2015-06-28T08:42:57Z</time>
      </trkpt>
      <trkpt lat="42.42638" lon="8.8982">
        <ele>1200.3435058594</ele>
        <time>2015-06-28T08:43:12Z</time>
      </trkpt>
      <trkpt lat="42.42643" lon="8.8983">
        <ele>1203.2272949219</ele>
        <time>2015-06-28T08:43:25Z</time>
      </trkpt>
      <trkpt lat="42.42644" lon="8.89839">
        <ele>1204.6691894531</ele>
        <time>2015-06-28T08:43:42Z</time>
      </trkpt>
      <trkpt lat="42.4264" lon="8.89847">
        <ele>1208.5144042969</ele>
        <time>2015-06-28T08:44:04Z</time>
      </trkpt>
      <trkpt lat="42.4264" lon="8.89847">
        <ele>1208.9951171875</ele>
        <time>2015-06-28T08:44:05Z</time>
      </trkpt>
      <trkpt lat="42.42644" lon="8.89855">
        <ele>1210.9177246094</ele>
        <time>2015-06-28T08:44:17Z</time>
      </trkpt>
      <trkpt lat="42.42645" lon="8.89856">
        <ele>1211.8791503906</ele>
        <time>2015-06-28T08:44:19Z</time>
      </trkpt>
      <trkpt lat="42.42651" lon="8.89862">
        <ele>1213.8017578125</ele>
        <time>2015-06-28T08:44:33Z</time>
      </trkpt>
      <trkpt lat="42.42651" lon="8.89871">
        <ele>1215.2438964844</ele>
        <time>2015-06-28T08:44:47Z</time>
      </trkpt>
      <trkpt lat="42.4264" lon="8.89883">
        <ele>1216.6857910156</ele>
        <time>2015-06-28T08:44:58Z</time>
      </trkpt>
      <trkpt lat="42.42639" lon="8.89883">
        <ele>1218.6083984375</ele>
        <time>2015-06-28T08:45:11Z</time>
      </trkpt>
      <trkpt lat="42.42632" lon="8.89883">
        <ele>1221.9729003906</ele>
        <time>2015-06-28T08:45:28Z</time>
      </trkpt>
      <trkpt lat="42.42632" lon="8.89884">
        <ele>1222.9343261719</ele>
        <time>2015-06-28T08:45:31Z</time>
      </trkpt>
      <trkpt lat="42.4263" lon="8.89895">
        <ele>1226.298828125</ele>
        <time>2015-06-28T08:45:49Z</time>
      </trkpt>
      <trkpt lat="42.42624" lon="8.89904">
        <ele>1228.7023925781</ele>
        <time>2015-06-28T08:46:12Z</time>
      </trkpt>
      <trkpt lat="42.42618" lon="8.89908">
        <ele>1230.625</ele>
        <time>2015-06-28T08:46:32Z</time>
      </trkpt>
      <trkpt lat="42.42608" lon="8.89916">
        <ele>1233.5087890625</ele>
        <time>2015-06-28T08:46:50Z</time>
      </trkpt>
      <trkpt lat="42.42603" lon="8.89922">
        <ele>1236.3928222656</ele>
        <time>2015-06-28T08:47:05Z</time>
      </trkpt>
      <trkpt lat="42.42599" lon="8.89924">
        <ele>1239.7573242188</ele>
        <time>2015-06-28T08:47:17Z</time>
      </trkpt>
      <trkpt lat="42.426" lon="8.89922">
        <ele>1241.19921875</ele>
        <time>2015-06-28T08:47:31Z</time>
      </trkpt>
      <trkpt lat="42.426" lon="8.89921">
        <ele>1243.6025390625</ele>
        <time>2015-06-28T08:47:47Z</time>
      </trkpt>
      <trkpt lat="42.42602" lon="8.89923">
        <ele>1246.9672851562</ele>
        <time>2015-06-28T08:48:01Z</time>
      </trkpt>
      <trkpt lat="42.4261" lon="8.89941">
        <ele>1249.8513183594</ele>
        <time>2015-06-28T08:48:26Z</time>
      </trkpt>
      <trkpt lat="42.42611" lon="8.89939">
        <ele>1250.33203125</ele>
        <time>2015-06-28T08:48:28Z</time>
      </trkpt>
      <trkpt lat="42.42611" lon="8.89932">
        <ele>1250.8125</ele>
        <time>2015-06-28T08:48:32Z</time>
      </trkpt>
      <trkpt lat="42.42622" lon="8.89947">
        <ele>1253.2158203125</ele>
        <time>2015-06-28T08:48:53Z</time>
      </trkpt>
      <trkpt lat="42.42626" lon="8.89955">
        <ele>1256.5803222656</ele>
        <time>2015-06-28T08:49:09Z</time>
      </trkpt>
      <trkpt lat="42.42622" lon="8.89965">
        <ele>1258.9836425781</ele>
        <time>2015-06-28T08:49:28Z</time>
      </trkpt>
      <trkpt lat="42.42621" lon="8.89969">
        <ele>1262.3483886719</ele>
        <time>2015-06-28T08:49:50Z</time>
      </trkpt>
      <trkpt lat="42.42623" lon="8.89973">
        <ele>1263.3098144531</ele>
        <time>2015-06-28T08:50:01Z</time>
      </trkpt>
      <trkpt lat="42.42616" lon="8.89981">
        <ele>1265.7131347656</ele>
        <time>2015-06-28T08:50:28Z</time>
      </trkpt>
      <trkpt lat="42.42621" lon="8.89979">
        <ele>1268.1162109375</ele>
        <time>2015-06-28T08:50:42Z</time>
      </trkpt>
      <trkpt lat="42.42631" lon="8.89992">
        <ele>1269.5583496094</ele>
        <time>2015-06-28T08:50:55Z</time>
      </trkpt>
      <trkpt lat="42.42635" lon="8.89999">
        <ele>1271.4807128906</ele>
        <time>2015-06-28T08:51:05Z</time>
      </trkpt>
      <trkpt lat="42.42634" lon="8.90006">
        <ele>1271.9614257812</ele>
        <time>2015-06-28T08:51:17Z</time>
      </trkpt>
      <trkpt lat="42.42634" lon="8.90015">
        <ele>1271.9614257812</ele>
        <time>2015-06-28T08:51:31Z</time>
      </trkpt>
      <trkpt lat="42.4263" lon="8.90026">
        <ele>1272.9228515625</ele>
        <time>2015-06-28T08:51:45Z</time>
      </trkpt>
      <trkpt lat="42.42624" lon="8.90031">
        <ele>1272.4421386719</ele>
        <time>2015-06-28T08:51:55Z</time>
      </trkpt>
      <trkpt lat="42.42622" lon="8.90032">
        <ele>1272.4421386719</ele>
        <time>2015-06-28T08:52:09Z</time>
      </trkpt>
      <trkpt lat="42.42628" lon="8.9003">
        <ele>1271.9614257812</ele>
        <time>2015-06-28T08:52:26Z</time>
      </trkpt>
      <trkpt lat="42.42628" lon="8.90035">
        <ele>1272.4421386719</ele>
        <time>2015-06-28T08:52:48Z</time>
      </trkpt>
      <trkpt lat="42.42626" lon="8.90039">
        <ele>1272.4421386719</ele>
        <time>2015-06-28T08:53:04Z</time>
      </trkpt>
      <trkpt lat="42.42627" lon="8.90033">
        <ele>1272.9228515625</ele>
        <time>2015-06-28T08:53:14Z</time>
      </trkpt>
      <trkpt lat="42.42629" lon="8.90029">
        <ele>1273.4035644531</ele>
        <time>2015-06-28T08:53:19Z</time>
      </trkpt>
      <trkpt lat="42.42633" lon="8.90014">
        <ele>1272.4421386719</ele>
        <time>2015-06-28T08:53:33Z</time>
      </trkpt>
      <trkpt lat="42.42634" lon="8.90007">
        <ele>1271.0002441406</ele>
        <time>2015-06-28T08:53:45Z</time>
      </trkpt>
      <trkpt lat="42.42633" lon="8.90006">
        <ele>1271.4807128906</ele>
        <time>2015-06-28T08:54:04Z</time>
      </trkpt>
      <trkpt lat="42.42632" lon="8.90005">
        <ele>1270.51953125</ele>
        <time>2015-06-28T08:54:29Z</time>
      </trkpt>
      <trkpt lat="42.42634" lon="8.90005">
        <ele>1271.4807128906</ele>
        <time>2015-06-28T08:55:31Z</time>
      </trkpt>
      <trkpt lat="42.42633" lon="8.89998">
        <ele>1271.0002441406</ele>
        <time>2015-06-28T08:55:46Z</time>
      </trkpt>
      <trkpt lat="42.42631" lon="8.89995">
        <ele>1269.0776367188</ele>
        <time>2015-06-28T08:56:03Z</time>
      </trkpt>
      <trkpt lat="42.42625" lon="8.89989">
        <ele>1268.1162109375</ele>
        <time>2015-06-28T08:56:20Z</time>
      </trkpt>
      <trkpt lat="42.42617" lon="8.89985">
        <ele>1267.6354980469</ele>
        <time>2015-06-28T08:56:31Z</time>
      </trkpt>
      <trkpt lat="42.42614" lon="8.89985">
        <ele>1268.5969238281</ele>
        <time>2015-06-28T08:56:44Z</time>
      </trkpt>
      <trkpt lat="42.42607" lon="8.89979">
        <ele>1267.6354980469</ele>
        <time>2015-06-28T08:57:02Z</time>
      </trkpt>
      <trkpt lat="42.42594" lon="8.89975">
        <ele>1265.7131347656</ele>
        <time>2015-06-28T08:57:17Z</time>
      </trkpt>
      <trkpt lat="42.4259" lon="8.89968">
        <ele>1261.8679199219</ele>
        <time>2015-06-28T08:57:36Z</time>
      </trkpt>
      <trkpt lat="42.42586" lon="8.89961">
        <ele>1259.9448242188</ele>
        <time>2015-06-28T08:57:53Z</time>
      </trkpt>
      <trkpt lat="42.42576" lon="8.8996">
        <ele>1258.0224609375</ele>
        <time>2015-06-28T08:58:10Z</time>
      </trkpt>
      <trkpt lat="42.4257" lon="8.8995">
        <ele>1256.099609375</ele>
        <time>2015-06-28T08:58:27Z</time>
      </trkpt>
      <trkpt lat="42.42567" lon="8.89939">
        <ele>1254.1772460938</ele>
        <time>2015-06-28T08:58:45Z</time>
      </trkpt>
      <trkpt lat="42.42561" lon="8.89929">
        <ele>1251.7739257812</ele>
        <time>2015-06-28T08:59:10Z</time>
      </trkpt>
      <trkpt lat="42.42554" lon="8.89921">
        <ele>1253.6965332031</ele>
        <time>2015-06-28T08:59:28Z</time>
      </trkpt>
      <trkpt lat="42.42547" lon="8.89921">
        <ele>1255.1384277344</ele>
        <time>2015-06-28T08:59:47Z</time>
      </trkpt>
      <trkpt lat="42.42543" lon="8.89921">
        <ele>1256.099609375</ele>
        <time>2015-06-28T08:59:59Z</time>
      </trkpt>
      <trkpt lat="42.42539" lon="8.89916">
        <ele>1256.5803222656</ele>
        <time>2015-06-28T09:00:10Z</time>
      </trkpt>
      <trkpt lat="42.42541" lon="8.89914">
        <ele>1256.5803222656</ele>
        <time>2015-06-28T09:00:20Z</time>
      </trkpt>
      <trkpt lat="42.42539" lon="8.89915">
        <ele>1257.0610351562</ele>
        <time>2015-06-28T09:00:22Z</time>
      </trkpt>
      <trkpt lat="42.42536" lon="8.89914">
        <ele>1258.5029296875</ele>
        <time>2015-06-28T09:00:27Z</time>
      </trkpt>
      <trkpt lat="42.42533" lon="8.8991">
        <ele>1257.5417480469</ele>
        <time>2015-06-28T09:00:55Z</time>
      </trkpt>
      <trkpt lat="42.42528" lon="8.89904">
        <ele>1256.5803222656</ele>
        <time>2015-06-28T09:01:06Z</time>
      </trkpt>
      <trkpt lat="42.42518" lon="8.899">
        <ele>1256.5803222656</ele>
        <time>2015-06-28T09:01:18Z</time>
      </trkpt>
      <trkpt lat="42.42512" lon="8.899">
        <ele>1257.5417480469</ele>
        <time>2015-06-28T09:01:29Z</time>
      </trkpt>
      <trkpt lat="42.42512" lon="8.89887">
        <ele>1256.099609375</ele>
        <time>2015-06-28T09:01:52Z</time>
      </trkpt>
      <trkpt lat="42.42507" lon="8.89878">
        <ele>1255.619140625</ele>
        <time>2015-06-28T09:02:13Z</time>
      </trkpt>
      <trkpt lat="42.42503" lon="8.89868">
        <ele>1254.1772460938</ele>
        <time>2015-06-28T09:02:27Z</time>
      </trkpt>
      <trkpt lat="42.42496" lon="8.89864">
        <ele>1252.2543945312</ele>
        <time>2015-06-28T09:02:56Z</time>
      </trkpt>
      <trkpt lat="42.4249" lon="8.89859">
        <ele>1252.7351074219</ele>
        <time>2015-06-28T09:03:06Z</time>
      </trkpt>
      <trkpt lat="42.42484" lon="8.89849">
        <ele>1251.7739257812</ele>
        <time>2015-06-28T09:03:18Z</time>
      </trkpt>
      <trkpt lat="42.42483" lon="8.89846">
        <ele>1252.2543945312</ele>
        <time>2015-06-28T09:03:33Z</time>
      </trkpt>
      <trkpt lat="42.42485" lon="8.8984">
        <ele>1248.4091796875</ele>
        <time>2015-06-28T09:04:06Z</time>
      </trkpt>
      <trkpt lat="42.42486" lon="8.89842">
        <ele>1247.9287109375</ele>
        <time>2015-06-28T09:04:13Z</time>
      </trkpt>
      <trkpt lat="42.42484" lon="8.89835">
        <ele>1246.4868164062</ele>
        <time>2015-06-28T09:04:38Z</time>
      </trkpt>
      <trkpt lat="42.42487" lon="8.89833">
        <ele>1244.0834960938</ele>
        <time>2015-06-28T09:04:54Z</time>
      </trkpt>
      <trkpt lat="42.42488" lon="8.89829">
        <ele>1243.1218261719</ele>
        <time>2015-06-28T09:05:12Z</time>
      </trkpt>
      <trkpt lat="42.42488" lon="8.89828">
        <ele>1241.19921875</ele>
        <time>2015-06-28T09:05:16Z</time>
      </trkpt>
      <trkpt lat="42.42489" lon="8.89824">
        <ele>1239.7573242188</ele>
        <time>2015-06-28T09:05:29Z</time>
      </trkpt>
      <trkpt lat="42.42484" lon="8.89822">
        <ele>1237.8347167969</ele>
        <time>2015-06-28T09:05:43Z</time>
      </trkpt>
      <trkpt lat="42.42483" lon="8.89815">
        <ele>1235.912109375</ele>
        <time>2015-06-28T09:06:03Z</time>
      </trkpt>
      <trkpt lat="42.4248" lon="8.89814">
        <ele>1234.9509277344</ele>
        <time>2015-06-28T09:06:18Z</time>
      </trkpt>
      <trkpt lat="42.42474" lon="8.89818">
        <ele>1237.3540039062</ele>
        <time>2015-06-28T09:06:32Z</time>
      </trkpt>
      <trkpt lat="42.42471" lon="8.89815">
        <ele>1235.912109375</ele>
        <time>2015-06-28T09:06:42Z</time>
      </trkpt>
      <trkpt lat="42.42466" lon="8.89815">
        <ele>1232.5476074219</ele>
        <time>2015-06-28T09:06:57Z</time>
      </trkpt>
      <trkpt lat="42.42459" lon="8.8982">
        <ele>1232.5476074219</ele>
        <time>2015-06-28T09:07:08Z</time>
      </trkpt>
      <trkpt lat="42.42455" lon="8.89815">
        <ele>1230.1442871094</ele>
        <time>2015-06-28T09:07:22Z</time>
      </trkpt>
      <trkpt lat="42.42452" lon="8.89811">
        <ele>1229.6635742188</ele>
        <time>2015-06-28T09:07:40Z</time>
      </trkpt>
      <trkpt lat="42.42449" lon="8.89811">
        <ele>1230.625</ele>
        <time>2015-06-28T09:07:49Z</time>
      </trkpt>
      <trkpt lat="42.42451" lon="8.89814">
        <ele>1232.0668945312</ele>
        <time>2015-06-28T09:08:03Z</time>
      </trkpt>
      <trkpt lat="42.42447" lon="8.89818">
        <ele>1232.5476074219</ele>
        <time>2015-06-28T09:08:06Z</time>
      </trkpt>
      <trkpt lat="42.42435" lon="8.89807">
        <ele>1233.5087890625</ele>
        <time>2015-06-28T09:08:20Z</time>
      </trkpt>
      <trkpt lat="42.42434" lon="8.89804">
        <ele>1232.5476074219</ele>
        <time>2015-06-28T09:08:40Z</time>
      </trkpt>
      <trkpt lat="42.42428" lon="8.89805">
        <ele>1232.0668945312</ele>
        <time>2015-06-28T09:09:04Z</time>
      </trkpt>
      <trkpt lat="42.42423" lon="8.898">
        <ele>1230.625</ele>
        <time>2015-06-28T09:10:36Z</time>
      </trkpt>
      <trkpt lat="42.4242" lon="8.898">
        <ele>1230.1442871094</ele>
        <time>2015-06-28T09:10:39Z</time>
      </trkpt>
      <trkpt lat="42.42408" lon="8.89799">
        <ele>1229.6635742188</ele>
        <time>2015-06-28T09:10:53Z</time>
      </trkpt>
      <trkpt lat="42.42415" lon="8.89792">
        <ele>1229.6635742188</ele>
        <time>2015-06-28T09:11:36Z</time>
      </trkpt>
      <trkpt lat="42.42421" lon="8.89793">
        <ele>1229.1828613281</ele>
        <time>2015-06-28T09:11:51Z</time>
      </trkpt>
      <trkpt lat="42.42424" lon="8.8979">
        <ele>1228.2216796875</ele>
        <time>2015-06-28T09:12:23Z</time>
      </trkpt>
      <trkpt lat="42.42419" lon="8.89777">
        <ele>1227.2602539062</ele>
        <time>2015-06-28T09:12:48Z</time>
      </trkpt>
      <trkpt lat="42.42416" lon="8.89762">
        <ele>1230.1442871094</ele>
        <time>2015-06-28T09:13:27Z</time>
      </trkpt>
      <trkpt lat="42.42419" lon="8.89769">
        <ele>1230.625</ele>
        <time>2015-06-28T09:13:50Z</time>
      </trkpt>
      <trkpt lat="42.42418" lon="8.89775">
        <ele>1233.9895019531</ele>
        <time>2015-06-28T09:15:37Z</time>
      </trkpt>
      <trkpt lat="42.42408" lon="8.89771">
        <ele>1237.3540039062</ele>
        <time>2015-06-28T09:16:20Z</time>
      </trkpt>
      <trkpt lat="42.424" lon="8.89771">
        <ele>1239.7573242188</ele>
        <time>2015-06-28T09:16:39Z</time>
      </trkpt>
      <trkpt lat="42.42396" lon="8.89777">
        <ele>1242.6413574219</ele>
        <time>2015-06-28T09:16:54Z</time>
      </trkpt>
      <trkpt lat="42.42392" lon="8.89779">
        <ele>1241.6799316406</ele>
        <time>2015-06-28T09:17:09Z</time>
      </trkpt>
      <trkpt lat="42.42388" lon="8.8978">
        <ele>1243.6025390625</ele>
        <time>2015-06-28T09:17:45Z</time>
      </trkpt>
      <trkpt lat="42.42394" lon="8.89778">
        <ele>1242.6413574219</ele>
        <time>2015-06-28T09:18:06Z</time>
      </trkpt>
      <trkpt lat="42.424" lon="8.89767">
        <ele>1241.6799316406</ele>
        <time>2015-06-28T09:18:18Z</time>
      </trkpt>
      <trkpt lat="42.42404" lon="8.89768">
        <ele>1240.2380371094</ele>
        <time>2015-06-28T09:18:32Z</time>
      </trkpt>
      <trkpt lat="42.42412" lon="8.89765">
        <ele>1237.3540039062</ele>
        <time>2015-06-28T09:18:50Z</time>
      </trkpt>
      <trkpt lat="42.4242" lon="8.89761">
        <ele>1235.4313964844</ele>
        <time>2015-06-28T09:19:10Z</time>
      </trkpt>
      <trkpt lat="42.4243" lon="8.89771">
        <ele>1232.0668945312</ele>
        <time>2015-06-28T09:19:36Z</time>
      </trkpt>
      <trkpt lat="42.42434" lon="8.89771">
        <ele>1232.5476074219</ele>
        <time>2015-06-28T09:20:03Z</time>
      </trkpt>
      <trkpt lat="42.42435" lon="8.89774">
        <ele>1231.1057128906</ele>
        <time>2015-06-28T09:20:06Z</time>
      </trkpt>
      <trkpt lat="42.42434" lon="8.89786">
        <ele>1229.1828613281</ele>
        <time>2015-06-28T09:20:18Z</time>
      </trkpt>
      <trkpt lat="42.42432" lon="8.898">
        <ele>1230.625</ele>
        <time>2015-06-28T09:20:34Z</time>
      </trkpt>
      <trkpt lat="42.42423" lon="8.89798">
        <ele>1230.1442871094</ele>
        <time>2015-06-28T09:20:53Z</time>
      </trkpt>
      <trkpt lat="42.42416" lon="8.89797">
        <ele>1228.7023925781</ele>
        <time>2015-06-28T09:21:02Z</time>
      </trkpt>
      <trkpt lat="42.42406" lon="8.89794">
        <ele>1229.1828613281</ele>
        <time>2015-06-28T09:21:15Z</time>
      </trkpt>
      <trkpt lat="42.42406" lon="8.89793">
        <ele>1228.7023925781</ele>
        <time>2015-06-28T09:21:16Z</time>
      </trkpt>
      <trkpt lat="42.42406" lon="8.89789">
        <ele>1232.0668945312</ele>
        <time>2015-06-28T09:22:23Z</time>
      </trkpt>
      <trkpt lat="42.424" lon="8.898">
        <ele>1232.5476074219</ele>
        <time>2015-06-28T09:22:35Z</time>
      </trkpt>
      <trkpt lat="42.424" lon="8.89802">
        <ele>1233.0280761719</ele>
        <time>2015-06-28T09:22:53Z</time>
      </trkpt>
      <trkpt lat="42.4239" lon="8.89789">
        <ele>1232.5476074219</ele>
        <time>2015-06-28T09:23:12Z</time>
      </trkpt>
      <trkpt lat="42.42384" lon="8.89786">
        <ele>1232.0668945312</ele>
        <time>2015-06-28T09:24:19Z</time>
      </trkpt>
      <trkpt lat="42.42386" lon="8.89804">
        <ele>1232.5476074219</ele>
        <time>2015-06-28T09:25:32Z</time>
      </trkpt>
      <trkpt lat="42.42391" lon="8.8981">
        <ele>1231.5861816406</ele>
        <time>2015-06-28T09:27:42Z</time>
      </trkpt>
      <trkpt lat="42.42387" lon="8.89801">
        <ele>1232.5476074219</ele>
        <time>2015-06-28T09:33:03Z</time>
      </trkpt>
      <trkpt lat="42.4238" lon="8.89801">
        <ele>1234.9509277344</ele>
        <time>2015-06-28T09:34:57Z</time>
      </trkpt>
    </trkseg>
  </trk>
  <trk>
    <name><![CDATA[ACTIVE LOG 014]]></name>
    <trkseg>
      <trkpt lat="42.42373" lon="8.89805">
        <ele>1235.912109375</ele>
        <time>2015-06-28T09:39:04Z</time>
      </trkpt>
    </trkseg>
  </trk>
  <trk>
    <name><![CDATA[ACTIVE LOG 015]]></name>
    <trkseg>
      <trkpt lat="42.4239" lon="8.89795">
        <ele>1236.8732910156</ele>
        <time>2015-06-28T09:40:08Z</time>
      </trkpt>
    </trkseg>
  </trk>
  <trk>
    <name><![CDATA[ACTIVE LOG 016]]></name>
    <trkseg>
      <trkpt lat="42.42388" lon="8.898">
        <ele>1236.3928222656</ele>
        <time>2015-06-28T09:41:27Z</time>
      </trkpt>
    </trkseg>
  </trk>
  <trk>
    <name><![CDATA[ACTIVE LOG 017]]></name>
    <trkseg>
      <trkpt lat="42.42371" lon="8.89804">
        <ele>1236.8732910156</ele>
        <time>2015-06-28T09:41:43Z</time>
      </trkpt>
    </trkseg>
  </trk>
  <trk>
    <name><![CDATA[ACTIVE LOG 018]]></name>
    <trkseg>
      <trkpt lat="42.42378" lon="8.89798">
        <ele>1235.4313964844</ele>
        <time>2015-06-28T09:42:22Z</time>
      </trkpt>
      <trkpt lat="42.42378" lon="8.89798">
        <ele>1237.3540039062</ele>
        <time>2015-06-28T09:43:56Z</time>
      </trkpt>
      <trkpt lat="42.42378" lon="8.89798">
        <ele>1235.912109375</ele>
        <time>2015-06-28T09:43:58Z</time>
      </trkpt>
      <trkpt lat="42.42378" lon="8.89798">
        <ele>1237.8347167969</ele>
        <time>2015-06-28T09:43:59Z</time>
      </trkpt>
      <trkpt lat="42.42378" lon="8.89798">
        <ele>1236.8732910156</ele>
        <time>2015-06-28T09:44:10Z</time>
      </trkpt>
      <trkpt lat="42.42412" lon="8.89792">
        <ele>1236.8732910156</ele>
        <time>2015-06-28T09:44:23Z</time>
      </trkpt>
    </trkseg>
  </trk>
  <trk>
    <name><![CDATA[ACTIVE LOG 019]]></name>
    <trkseg>
      <trkpt lat="42.42417" lon="8.89796">
        <ele>1236.3928222656</ele>
        <time>2015-06-28T09:45:42Z</time>
      </trkpt>
    </trkseg>
  </trk>
  <trk>
    <name><![CDATA[ACTIVE LOG 020]]></name>
    <trkseg>
      <trkpt lat="42.42413" lon="8.89797">
        <ele>1237.3540039062</ele>
        <time>2015-06-28T09:46:05Z</time>
      </trkpt>
    </trkseg>
  </trk>
  <trk>
    <name><![CDATA[ACTIVE LOG 021]]></name>
    <trkseg>
      <trkpt lat="42.42392" lon="8.89808">
        <ele>1234.9509277344</ele>
        <time>2015-06-28T09:48:20Z</time>
      </trkpt>
    </trkseg>
  </trk>
  <trk>
    <name><![CDATA[ACTIVE LOG 022]]></name>
    <trkseg>
      <trkpt lat="42.42406" lon="8.89805">
        <ele>1234.9509277344</ele>
        <time>2015-06-28T09:48:28Z</time>
      </trkpt>
    </trkseg>
  </trk>
  <trk>
    <name><![CDATA[ACTIVE LOG 023]]></name>
    <trkseg>
      <trkpt lat="42.42407" lon="8.89804">
        <ele>1235.912109375</ele>
        <time>2015-06-28T09:49:02Z</time>
      </trkpt>
    </trkseg>
  </trk>
  <trk>
    <name><![CDATA[ACTIVE LOG 024]]></name>
    <trkseg>
      <trkpt lat="42.4239" lon="8.89802">
        <ele>1235.4313964844</ele>
        <time>2015-06-28T09:49:42Z</time>
      </trkpt>
    </trkseg>
  </trk>
  <trk>
    <name><![CDATA[ACTIVE LOG 025]]></name>
    <trkseg>
      <trkpt lat="42.42385" lon="8.89799">
        <ele>1236.8732910156</ele>
        <time>2015-06-28T09:50:42Z</time>
      </trkpt>
      <trkpt lat="42.42385" lon="8.89799">
        <ele>1237.3540039062</ele>
        <time>2015-06-28T09:54:59Z</time>
      </trkpt>
      <trkpt lat="42.42385" lon="8.89799">
        <ele>1235.912109375</ele>
        <time>2015-06-28T09:55:29Z</time>
      </trkpt>
      <trkpt lat="42.42385" lon="8.89799">
        <ele>1237.3540039062</ele>
        <time>2015-06-28T09:56:25Z</time>
      </trkpt>
      <trkpt lat="42.42385" lon="8.89799">
        <ele>1235.4313964844</ele>
        <time>2015-06-28T09:57:26Z</time>
      </trkpt>
      <trkpt lat="42.42385" lon="8.89799">
        <ele>1238.3154296875</ele>
        <time>2015-06-28T09:58:55Z</time>
      </trkpt>
      <trkpt lat="42.42385" lon="8.89799">
        <ele>1236.3928222656</ele>
        <time>2015-06-28T09:59:50Z</time>
      </trkpt>
      <trkpt lat="42.42385" lon="8.89799">
        <ele>1237.3540039062</ele>
        <time>2015-06-28T09:59:51Z</time>
      </trkpt>
      <trkpt lat="42.42385" lon="8.89799">
        <ele>1238.3154296875</ele>
        <time>2015-06-28T10:01:14Z</time>
      </trkpt>
      <trkpt lat="42.42385" lon="8.89799">
        <ele>1236.3928222656</ele>
        <time>2015-06-28T10:01:29Z</time>
      </trkpt>
      <trkpt lat="42.42385" lon="8.89799">
        <ele>1236.3928222656</ele>
        <time>2015-06-28T10:02:28Z</time>
      </trkpt>
      <trkpt lat="42.42385" lon="8.89799">
        <ele>1236.8732910156</ele>
        <time>2015-06-28T10:02:37Z</time>
      </trkpt>
      <trkpt lat="42.42385" lon="8.89799">
        <ele>1238.3154296875</ele>
        <time>2015-06-28T10:02:38Z</time>
      </trkpt>
      <trkpt lat="42.42385" lon="8.89799">
        <ele>1234.9509277344</ele>
        <time>2015-06-28T10:07:06Z</time>
      </trkpt>
      <trkpt lat="42.42385" lon="8.89799">
        <ele>1235.912109375</ele>
        <time>2015-06-28T10:11:12Z</time>
      </trkpt>
    </trkseg>
  </trk>
  <trk>
    <name><![CDATA[ACTIVE LOG 026]]></name>
    <trkseg>
      <trkpt lat="42.42399" lon="8.89813">
        <ele>1237.3540039062</ele>
        <time>2015-06-28T10:22:32Z</time>
      </trkpt>
      <trkpt lat="42.42393" lon="8.89807">
        <ele>1236.3928222656</ele>
        <time>2015-06-28T10:22:47Z</time>
      </trkpt>
      <trkpt lat="42.42434" lon="8.8985">
        <ele>1237.8347167969</ele>
        <time>2015-06-28T10:23:14Z</time>
      </trkpt>
      <trkpt lat="42.42448" lon="8.89866">
        <ele>1236.8732910156</ele>
        <time>2015-06-28T10:23:29Z</time>
      </trkpt>
      <trkpt lat="42.42451" lon="8.89871">
        <ele>1236.3928222656</ele>
        <time>2015-06-28T10:24:05Z</time>
      </trkpt>
      <trkpt lat="42.42407" lon="8.89823">
        <ele>1235.912109375</ele>
        <time>2015-06-28T10:24:29Z</time>
      </trkpt>
      <trkpt lat="42.42398" lon="8.89814">
        <ele>1232.5476074219</ele>
        <time>2015-06-28T10:29:18Z</time>
      </trkpt>
      <trkpt lat="42.42391" lon="8.89804">
        <ele>1229.1828613281</ele>
        <time>2015-06-28T10:41:16Z</time>
      </trkpt>
      <trkpt lat="42.42409" lon="8.89806">
        <ele>1228.2216796875</ele>
        <time>2015-06-28T11:08:13Z</time>
      </trkpt>
      <trkpt lat="42.42423" lon="8.89807">
        <ele>1231.1057128906</ele>
        <time>2015-06-28T11:08:26Z</time>
      </trkpt>
      <trkpt lat="42.42464" lon="8.8981">
        <ele>1230.625</ele>
        <time>2015-06-28T11:09:59Z</time>
      </trkpt>
      <trkpt lat="42.4247" lon="8.89809">
        <ele>1231.5861816406</ele>
        <time>2015-06-28T11:10:33Z</time>
      </trkpt>
      <trkpt lat="42.42479" lon="8.8981">
        <ele>1232.5476074219</ele>
        <time>2015-06-28T11:10:48Z</time>
      </trkpt>
      <trkpt lat="42.42482" lon="8.89813">
        <ele>1235.912109375</ele>
        <time>2015-06-28T11:11:07Z</time>
      </trkpt>
      <trkpt lat="42.42491" lon="8.89812">
        <ele>1235.912109375</ele>
        <time>2015-06-28T11:11:18Z</time>
      </trkpt>
      <trkpt lat="42.42491" lon="8.89813">
        <ele>1234.9509277344</ele>
        <time>2015-06-28T11:11:33Z</time>
      </trkpt>
      <trkpt lat="42.42497" lon="8.89818">
        <ele>1235.4313964844</ele>
        <time>2015-06-28T11:11:48Z</time>
      </trkpt>
      <trkpt lat="42.42491" lon="8.89821">
        <ele>1238.7961425781</ele>
        <time>2015-06-28T11:12:01Z</time>
      </trkpt>
      <trkpt lat="42.42494" lon="8.89825">
        <ele>1239.2766113281</ele>
        <time>2015-06-28T11:12:06Z</time>
      </trkpt>
      <trkpt lat="42.42489" lon="8.89833">
        <ele>1242.1606445312</ele>
        <time>2015-06-28T11:12:17Z</time>
      </trkpt>
      <trkpt lat="42.42488" lon="8.89841">
        <ele>1245.0446777344</ele>
        <time>2015-06-28T11:12:31Z</time>
      </trkpt>
      <trkpt lat="42.42499" lon="8.89843">
        <ele>1246.0061035156</ele>
        <time>2015-06-28T11:12:48Z</time>
      </trkpt>
      <trkpt lat="42.42497" lon="8.89852">
        <ele>1248.4091796875</ele>
        <time>2015-06-28T11:13:02Z</time>
      </trkpt>
      <trkpt lat="42.42494" lon="8.89861">
        <ele>1250.8125</ele>
        <time>2015-06-28T11:13:20Z</time>
      </trkpt>
      <trkpt lat="42.42499" lon="8.89867">
        <ele>1251.7739257812</ele>
        <time>2015-06-28T11:13:34Z</time>
      </trkpt>
      <trkpt lat="42.42505" lon="8.89869">
        <ele>1251.7739257812</ele>
        <time>2015-06-28T11:13:45Z</time>
      </trkpt>
      <trkpt lat="42.42507" lon="8.89873">
        <ele>1253.2158203125</ele>
        <time>2015-06-28T11:13:58Z</time>
      </trkpt>
      <trkpt lat="42.4251" lon="8.8988">
        <ele>1254.6577148438</ele>
        <time>2015-06-28T11:14:12Z</time>
      </trkpt>
      <trkpt lat="42.42514" lon="8.89887">
        <ele>1255.1384277344</ele>
        <time>2015-06-28T11:14:25Z</time>
      </trkpt>
      <trkpt lat="42.42512" lon="8.89892">
        <ele>1257.5417480469</ele>
        <time>2015-06-28T11:14:38Z</time>
      </trkpt>
      <trkpt lat="42.42521" lon="8.89898">
        <ele>1256.099609375</ele>
        <time>2015-06-28T11:14:54Z</time>
      </trkpt>
      <trkpt lat="42.42528" lon="8.89902">
        <ele>1255.619140625</ele>
        <time>2015-06-28T11:15:07Z</time>
      </trkpt>
      <trkpt lat="42.42532" lon="8.89909">
        <ele>1256.099609375</ele>
        <time>2015-06-28T11:15:23Z</time>
      </trkpt>
      <trkpt lat="42.42541" lon="8.89908">
        <ele>1254.6577148438</ele>
        <time>2015-06-28T11:15:36Z</time>
      </trkpt>
      <trkpt lat="42.42546" lon="8.89909">
        <ele>1252.7351074219</ele>
        <time>2015-06-28T11:15:50Z</time>
      </trkpt>
      <trkpt lat="42.42549" lon="8.89916">
        <ele>1252.7351074219</ele>
        <time>2015-06-28T11:16:10Z</time>
      </trkpt>
      <trkpt lat="42.42556" lon="8.89924">
        <ele>1253.2158203125</ele>
        <time>2015-06-28T11:16:23Z</time>
      </trkpt>
      <trkpt lat="42.42562" lon="8.89926">
        <ele>1253.6965332031</ele>
        <time>2015-06-28T11:16:36Z</time>
      </trkpt>
      <trkpt lat="42.42564" lon="8.89925">
        <ele>1250.33203125</ele>
        <time>2015-06-28T11:16:50Z</time>
      </trkpt>
      <trkpt lat="42.42571" lon="8.89927">
        <ele>1249.8513183594</ele>
        <time>2015-06-28T11:17:04Z</time>
      </trkpt>
      <trkpt lat="42.42572" lon="8.89927">
        <ele>1248.4091796875</ele>
        <time>2015-06-28T11:17:07Z</time>
      </trkpt>
      <trkpt lat="42.4258" lon="8.89927">
        <ele>1245.0446777344</ele>
        <time>2015-06-28T11:17:27Z</time>
      </trkpt>
      <trkpt lat="42.42585" lon="8.89925">
        <ele>1244.0834960938</ele>
        <time>2015-06-28T11:17:38Z</time>
      </trkpt>
      <trkpt lat="42.42591" lon="8.89924">
        <ele>1241.6799316406</ele>
        <time>2015-06-28T11:18:00Z</time>
      </trkpt>
      <trkpt lat="42.42597" lon="8.89917">
        <ele>1239.7573242188</ele>
        <time>2015-06-28T11:18:22Z</time>
      </trkpt>
      <trkpt lat="42.42604" lon="8.89912">
        <ele>1237.3540039062</ele>
        <time>2015-06-28T11:18:42Z</time>
      </trkpt>
      <trkpt lat="42.42609" lon="8.8991">
        <ele>1235.4313964844</ele>
        <time>2015-06-28T11:18:57Z</time>
      </trkpt>
      <trkpt lat="42.42614" lon="8.899">
        <ele>1232.5476074219</ele>
        <time>2015-06-28T11:19:16Z</time>
      </trkpt>
      <trkpt lat="42.42617" lon="8.89894">
        <ele>1229.6635742188</ele>
        <time>2015-06-28T11:19:29Z</time>
      </trkpt>
      <trkpt lat="42.42624" lon="8.89895">
        <ele>1228.7023925781</ele>
        <time>2015-06-28T11:19:51Z</time>
      </trkpt>
      <trkpt lat="42.42629" lon="8.89889">
        <ele>1226.7795410156</ele>
        <time>2015-06-28T11:20:04Z</time>
      </trkpt>
      <trkpt lat="42.42631" lon="8.89881">
        <ele>1223.8955078125</ele>
        <time>2015-06-28T11:20:19Z</time>
      </trkpt>
      <trkpt lat="42.42634" lon="8.89873">
        <ele>1221.9729003906</ele>
        <time>2015-06-28T11:20:32Z</time>
      </trkpt>
      <trkpt lat="42.42634" lon="8.89871">
        <ele>1221.01171875</ele>
        <time>2015-06-28T11:20:34Z</time>
      </trkpt>
      <trkpt lat="42.42643" lon="8.89868">
        <ele>1218.6083984375</ele>
        <time>2015-06-28T11:20:49Z</time>
      </trkpt>
      <trkpt lat="42.42647" lon="8.89862">
        <ele>1218.6083984375</ele>
        <time>2015-06-28T11:21:03Z</time>
      </trkpt>
      <trkpt lat="42.42645" lon="8.89858">
        <ele>1217.1665039062</ele>
        <time>2015-06-28T11:21:10Z</time>
      </trkpt>
      <trkpt lat="42.42641" lon="8.89857">
        <ele>1214.7631835938</ele>
        <time>2015-06-28T11:21:24Z</time>
      </trkpt>
      <trkpt lat="42.42636" lon="8.89857">
        <ele>1214.7631835938</ele>
        <time>2015-06-28T11:21:35Z</time>
      </trkpt>
      <trkpt lat="42.42632" lon="8.89843">
        <ele>1211.8791503906</ele>
        <time>2015-06-28T11:21:49Z</time>
      </trkpt>
      <trkpt lat="42.42632" lon="8.89842">
        <ele>1210.9177246094</ele>
        <time>2015-06-28T11:21:51Z</time>
      </trkpt>
      <trkpt lat="42.42631" lon="8.89833">
        <ele>1209.4758300781</ele>
        <time>2015-06-28T11:22:06Z</time>
      </trkpt>
      <trkpt lat="42.4263" lon="8.89828">
        <ele>1207.0725097656</ele>
        <time>2015-06-28T11:22:20Z</time>
      </trkpt>
      <trkpt lat="42.42633" lon="8.89818">
        <ele>1205.1499023438</ele>
        <time>2015-06-28T11:22:33Z</time>
      </trkpt>
      <trkpt lat="42.42639" lon="8.89805">
        <ele>1201.7854003906</ele>
        <time>2015-06-28T11:22:55Z</time>
      </trkpt>
      <trkpt lat="42.42646" lon="8.89798">
        <ele>1198.4206542969</ele>
        <time>2015-06-28T11:23:08Z</time>
      </trkpt>
      <trkpt lat="42.42651" lon="8.89803">
        <ele>1197.9401855469</ele>
        <time>2015-06-28T11:23:14Z</time>
      </trkpt>
      <trkpt lat="42.42664" lon="8.89816">
        <ele>1197.9401855469</ele>
        <time>2015-06-28T11:23:27Z</time>
      </trkpt>
      <trkpt lat="42.42664" lon="8.89815">
        <ele>1196.4982910156</ele>
        <time>2015-06-28T11:23:38Z</time>
      </trkpt>
      <trkpt lat="42.42669" lon="8.89821">
        <ele>1194.5751953125</ele>
        <time>2015-06-28T11:23:47Z</time>
      </trkpt>
      <trkpt lat="42.42682" lon="8.89829">
        <ele>1192.6528320312</ele>
        <time>2015-06-28T11:24:11Z</time>
      </trkpt>
      <trkpt lat="42.4268" lon="8.89823">
        <ele>1191.69140625</ele>
        <time>2015-06-28T11:24:21Z</time>
      </trkpt>
      <trkpt lat="42.42677" lon="8.89817">
        <ele>1190.2495117188</ele>
        <time>2015-06-28T11:24:26Z</time>
      </trkpt>
      <trkpt lat="42.42669" lon="8.89807">
        <ele>1189.2880859375</ele>
        <time>2015-06-28T11:24:37Z</time>
      </trkpt>
      <trkpt lat="42.4266" lon="8.89793">
        <ele>1185.9235839844</ele>
        <time>2015-06-28T11:24:50Z</time>
      </trkpt>
      <trkpt lat="42.42665" lon="8.89787">
        <ele>1186.404296875</ele>
        <time>2015-06-28T11:25:03Z</time>
      </trkpt>
      <trkpt lat="42.4267" lon="8.89788">
        <ele>1184.0009765625</ele>
        <time>2015-06-28T11:25:14Z</time>
      </trkpt>
      <trkpt lat="42.42672" lon="8.89782">
        <ele>1180.6364746094</ele>
        <time>2015-06-28T11:25:31Z</time>
      </trkpt>
      <trkpt lat="42.42676" lon="8.89785">
        <ele>1180.1557617188</ele>
        <time>2015-06-28T11:25:43Z</time>
      </trkpt>
      <trkpt lat="42.42669" lon="8.89773">
        <ele>1176.791015625</ele>
        <time>2015-06-28T11:26:00Z</time>
      </trkpt>
      <trkpt lat="42.42667" lon="8.89765">
        <ele>1174.8684082031</ele>
        <time>2015-06-28T11:26:12Z</time>
      </trkpt>
      <trkpt lat="42.42667" lon="8.89764">
        <ele>1174.3876953125</ele>
        <time>2015-06-28T11:26:14Z</time>
      </trkpt>
      <trkpt lat="42.42673" lon="8.89755">
        <ele>1170.5424804688</ele>
        <time>2015-06-28T11:26:39Z</time>
      </trkpt>
      <trkpt lat="42.42674" lon="8.89755">
        <ele>1170.5424804688</ele>
        <time>2015-06-28T11:26:40Z</time>
      </trkpt>
      <trkpt lat="42.42682" lon="8.89754">
        <ele>1169.1005859375</ele>
        <time>2015-06-28T11:26:56Z</time>
      </trkpt>
      <trkpt lat="42.4269" lon="8.89756">
        <ele>1170.5424804688</ele>
        <time>2015-06-28T11:27:09Z</time>
      </trkpt>
      <trkpt lat="42.42694" lon="8.89752">
        <ele>1170.0617675781</ele>
        <time>2015-06-28T11:27:23Z</time>
      </trkpt>
      <trkpt lat="42.42698" lon="8.89753">
        <ele>1169.1005859375</ele>
        <time>2015-06-28T11:27:39Z</time>
      </trkpt>
      <trkpt lat="42.42706" lon="8.89748">
        <ele>1171.5036621094</ele>
        <time>2015-06-28T11:27:53Z</time>
      </trkpt>
      <trkpt lat="42.42707" lon="8.89747">
        <ele>1171.5036621094</ele>
        <time>2015-06-28T11:27:55Z</time>
      </trkpt>
      <trkpt lat="42.42711" lon="8.89743">
        <ele>1171.0231933594</ele>
        <time>2015-06-28T11:27:59Z</time>
      </trkpt>
      <trkpt lat="42.42722" lon="8.89736">
        <ele>1171.0231933594</ele>
        <time>2015-06-28T11:28:16Z</time>
      </trkpt>
      <trkpt lat="42.42733" lon="8.8973">
        <ele>1171.5036621094</ele>
        <time>2015-06-28T11:28:48Z</time>
      </trkpt>
      <trkpt lat="42.42742" lon="8.89722">
        <ele>1173.4265136719</ele>
        <time>2015-06-28T11:29:04Z</time>
      </trkpt>
      <trkpt lat="42.42751" lon="8.89716">
        <ele>1174.3876953125</ele>
        <time>2015-06-28T11:29:17Z</time>
      </trkpt>
      <trkpt lat="42.42756" lon="8.89708">
        <ele>1171.5036621094</ele>
        <time>2015-06-28T11:29:33Z</time>
      </trkpt>
      <trkpt lat="42.42764" lon="8.89702">
        <ele>1171.0231933594</ele>
        <time>2015-06-28T11:29:47Z</time>
      </trkpt>
      <trkpt lat="42.42769" lon="8.89698">
        <ele>1169.1005859375</ele>
        <time>2015-06-28T11:30:01Z</time>
      </trkpt>
      <trkpt lat="42.42776" lon="8.89696">
        <ele>1167.6584472656</ele>
        <time>2015-06-28T11:30:18Z</time>
      </trkpt>
      <trkpt lat="42.42767" lon="8.89699">
        <ele>1166.2165527344</ele>
        <time>2015-06-28T11:30:30Z</time>
      </trkpt>
      <trkpt lat="42.42772" lon="8.89693">
        <ele>1165.2553710938</ele>
        <time>2015-06-28T11:30:44Z</time>
      </trkpt>
      <trkpt lat="42.42777" lon="8.89687">
        <ele>1164.2939453125</ele>
        <time>2015-06-28T11:30:58Z</time>
      </trkpt>
      <trkpt lat="42.42775" lon="8.89681">
        <ele>1160.9291992188</ele>
        <time>2015-06-28T11:31:13Z</time>
      </trkpt>
      <trkpt lat="42.4278" lon="8.89675">
        <ele>1159.9677734375</ele>
        <time>2015-06-28T11:31:28Z</time>
      </trkpt>
      <trkpt lat="42.42789" lon="8.89672">
        <ele>1159.9677734375</ele>
        <time>2015-06-28T11:31:39Z</time>
      </trkpt>
      <trkpt lat="42.42799" lon="8.89665">
        <ele>1159.4873046875</ele>
        <time>2015-06-28T11:31:51Z</time>
      </trkpt>
      <trkpt lat="42.428" lon="8.89661">
        <ele>1158.5258789062</ele>
        <time>2015-06-28T11:31:53Z</time>
      </trkpt>
      <trkpt lat="42.42812" lon="8.89652">
        <ele>1160.4484863281</ele>
        <time>2015-06-28T11:32:07Z</time>
      </trkpt>
      <trkpt lat="42.42823" lon="8.89644">
        <ele>1161.890625</ele>
        <time>2015-06-28T11:32:19Z</time>
      </trkpt>
      <trkpt lat="42.42834" lon="8.89648">
        <ele>1163.3325195312</ele>
        <time>2015-06-28T11:32:34Z</time>
      </trkpt>
      <trkpt lat="42.42837" lon="8.89641">
        <ele>1162.8518066406</ele>
        <time>2015-06-28T11:32:48Z</time>
      </trkpt>
      <trkpt lat="42.42838" lon="8.89641">
        <ele>1162.37109375</ele>
        <time>2015-06-28T11:32:49Z</time>
      </trkpt>
      <trkpt lat="42.42843" lon="8.89634">
        <ele>1161.890625</ele>
        <time>2015-06-28T11:32:58Z</time>
      </trkpt>
      <trkpt lat="42.42852" lon="8.8963">
        <ele>1160.9291992188</ele>
        <time>2015-06-28T11:33:12Z</time>
      </trkpt>
      <trkpt lat="42.42856" lon="8.89627">
        <ele>1159.9677734375</ele>
        <time>2015-06-28T11:33:17Z</time>
      </trkpt>
      <trkpt lat="42.42867" lon="8.89615">
        <ele>1159.0065917969</ele>
        <time>2015-06-28T11:33:33Z</time>
      </trkpt>
      <trkpt lat="42.42873" lon="8.89612">
        <ele>1157.5646972656</ele>
        <time>2015-06-28T11:33:46Z</time>
      </trkpt>
      <trkpt lat="42.42881" lon="8.89604">
        <ele>1154.6806640625</ele>
        <time>2015-06-28T11:34:01Z</time>
      </trkpt>
      <trkpt lat="42.42881" lon="8.89594">
        <ele>1151.796875</ele>
        <time>2015-06-28T11:34:16Z</time>
      </trkpt>
      <trkpt lat="42.42882" lon="8.8959">
        <ele>1150.8354492188</ele>
        <time>2015-06-28T11:34:38Z</time>
      </trkpt>
      <trkpt lat="42.42894" lon="8.89577">
        <ele>1147.9514160156</ele>
        <time>2015-06-28T11:35:00Z</time>
      </trkpt>
      <trkpt lat="42.42901" lon="8.89575">
        <ele>1146.5095214844</ele>
        <time>2015-06-28T11:35:15Z</time>
      </trkpt>
      <trkpt lat="42.42908" lon="8.89576">
        <ele>1145.5480957031</ele>
        <time>2015-06-28T11:35:29Z</time>
      </trkpt>
      <trkpt lat="42.42909" lon="8.89572">
        <ele>1143.6254882812</ele>
        <time>2015-06-28T11:35:45Z</time>
      </trkpt>
      <trkpt lat="42.42904" lon="8.89563">
        <ele>1142.6643066406</ele>
        <time>2015-06-28T11:35:59Z</time>
      </trkpt>
      <trkpt lat="42.42898" lon="8.89548">
        <ele>1139.7802734375</ele>
        <time>2015-06-28T11:36:18Z</time>
      </trkpt>
      <trkpt lat="42.42904" lon="8.89546">
        <ele>1136.4157714844</ele>
        <time>2015-06-28T11:36:35Z</time>
      </trkpt>
      <trkpt lat="42.42904" lon="8.89537">
        <ele>1133.5317382812</ele>
        <time>2015-06-28T11:36:52Z</time>
      </trkpt>
      <trkpt lat="42.42908" lon="8.8953">
        <ele>1130.6477050781</ele>
        <time>2015-06-28T11:37:09Z</time>
      </trkpt>
      <trkpt lat="42.42914" lon="8.89515">
        <ele>1128.7250976562</ele>
        <time>2015-06-28T11:37:41Z</time>
      </trkpt>
      <trkpt lat="42.4292" lon="8.89496">
        <ele>1125.8410644531</ele>
        <time>2015-06-28T11:38:07Z</time>
      </trkpt>
      <trkpt lat="42.4292" lon="8.89492">
        <ele>1124.3991699219</ele>
        <time>2015-06-28T11:38:12Z</time>
      </trkpt>
      <trkpt lat="42.42924" lon="8.89484">
        <ele>1122.9572753906</ele>
        <time>2015-06-28T11:38:24Z</time>
      </trkpt>
      <trkpt lat="42.4293" lon="8.89478">
        <ele>1121.0346679688</ele>
        <time>2015-06-28T11:38:42Z</time>
      </trkpt>
      <trkpt lat="42.42931" lon="8.89474">
        <ele>1119.1120605469</ele>
        <time>2015-06-28T11:38:59Z</time>
      </trkpt>
      <trkpt lat="42.42932" lon="8.89468">
        <ele>1115.7473144531</ele>
        <time>2015-06-28T11:39:07Z</time>
      </trkpt>
      <trkpt lat="42.42936" lon="8.89459">
        <ele>1115.7473144531</ele>
        <time>2015-06-28T11:39:20Z</time>
      </trkpt>
      <trkpt lat="42.42947" lon="8.89452">
        <ele>1114.3051757812</ele>
        <time>2015-06-28T11:39:39Z</time>
      </trkpt>
      <trkpt lat="42.42957" lon="8.89444">
        <ele>1110.4599609375</ele>
        <time>2015-06-28T11:40:02Z</time>
      </trkpt>
      <trkpt lat="42.42956" lon="8.89441">
        <ele>1108.0568847656</ele>
        <time>2015-06-28T11:40:13Z</time>
      </trkpt>
      <trkpt lat="42.42954" lon="8.89433">
        <ele>1106.1340332031</ele>
        <time>2015-06-28T11:40:29Z</time>
      </trkpt>
      <trkpt lat="42.42957" lon="8.89432">
        <ele>1104.6921386719</ele>
        <time>2015-06-28T11:40:37Z</time>
      </trkpt>
      <trkpt lat="42.42964" lon="8.8943">
        <ele>1103.2502441406</ele>
        <time>2015-06-28T11:40:51Z</time>
      </trkpt>
      <trkpt lat="42.42963" lon="8.89424">
        <ele>1099.8854980469</ele>
        <time>2015-06-28T11:41:08Z</time>
      </trkpt>
      <trkpt lat="42.42967" lon="8.8942">
        <ele>1097.962890625</ele>
        <time>2015-06-28T11:41:23Z</time>
      </trkpt>
      <trkpt lat="42.42979" lon="8.89411">
        <ele>1095.5595703125</ele>
        <time>2015-06-28T11:41:39Z</time>
      </trkpt>
      <trkpt lat="42.42983" lon="8.894">
        <ele>1094.1176757812</ele>
        <time>2015-06-28T11:41:52Z</time>
      </trkpt>
      <trkpt lat="42.42991" lon="8.894">
        <ele>1091.7143554688</ele>
        <time>2015-06-28T11:42:04Z</time>
      </trkpt>
      <trkpt lat="42.42998" lon="8.89397">
        <ele>1090.7529296875</ele>
        <time>2015-06-28T11:42:20Z</time>
      </trkpt>
      <trkpt lat="42.42997" lon="8.89391">
        <ele>1087.869140625</ele>
        <time>2015-06-28T11:42:35Z</time>
      </trkpt>
      <trkpt lat="42.43005" lon="8.89386">
        <ele>1086.4272460938</ele>
        <time>2015-06-28T11:42:49Z</time>
      </trkpt>
      <trkpt lat="42.43015" lon="8.89383">
        <ele>1085.4658203125</ele>
        <time>2015-06-28T11:43:04Z</time>
      </trkpt>
      <trkpt lat="42.43021" lon="8.89377">
        <ele>1083.0622558594</ele>
        <time>2015-06-28T11:43:15Z</time>
      </trkpt>
      <trkpt lat="42.43024" lon="8.89377">
        <ele>1082.5817871094</ele>
        <time>2015-06-28T11:43:18Z</time>
      </trkpt>
      <trkpt lat="42.43035" lon="8.89375">
        <ele>1081.1398925781</ele>
        <time>2015-06-28T11:43:33Z</time>
      </trkpt>
      <trkpt lat="42.43041" lon="8.89366">
        <ele>1079.2170410156</ele>
        <time>2015-06-28T11:43:47Z</time>
      </trkpt>
      <trkpt lat="42.4305" lon="8.89362">
        <ele>1077.2946777344</ele>
        <time>2015-06-28T11:44:01Z</time>
      </trkpt>
      <trkpt lat="42.43059" lon="8.89362">
        <ele>1074.8913574219</ele>
        <time>2015-06-28T11:44:17Z</time>
      </trkpt>
      <trkpt lat="42.43068" lon="8.89356">
        <ele>1072.96875</ele>
        <time>2015-06-28T11:44:34Z</time>
      </trkpt>
      <trkpt lat="42.4308" lon="8.89351">
        <ele>1071.0461425781</ele>
        <time>2015-06-28T11:44:50Z</time>
      </trkpt>
      <trkpt lat="42.43087" lon="8.89351">
        <ele>1070.5654296875</ele>
        <time>2015-06-28T11:45:03Z</time>
      </trkpt>
      <trkpt lat="42.43091" lon="8.89347">
        <ele>1067.2006835938</ele>
        <time>2015-06-28T11:45:20Z</time>
      </trkpt>
      <trkpt lat="42.43094" lon="8.89344">
        <ele>1064.3166503906</ele>
        <time>2015-06-28T11:45:31Z</time>
      </trkpt>
      <trkpt lat="42.43101" lon="8.89341">
        <ele>1062.3940429688</ele>
        <time>2015-06-28T11:45:44Z</time>
      </trkpt>
      <trkpt lat="42.43105" lon="8.89332">
        <ele>1060.9521484375</ele>
        <time>2015-06-28T11:45:58Z</time>
      </trkpt>
      <trkpt lat="42.43113" lon="8.89336">
        <ele>1059.0295410156</ele>
        <time>2015-06-28T11:46:12Z</time>
      </trkpt>
      <trkpt lat="42.43122" lon="8.89321">
        <ele>1057.5876464844</ele>
        <time>2015-06-28T11:46:32Z</time>
      </trkpt>
      <trkpt lat="42.43128" lon="8.89317">
        <ele>1054.7036132812</ele>
        <time>2015-06-28T11:46:49Z</time>
      </trkpt>
      <trkpt lat="42.43135" lon="8.89315">
        <ele>1053.7424316406</ele>
        <time>2015-06-28T11:47:01Z</time>
      </trkpt>
      <trkpt lat="42.43142" lon="8.89313">
        <ele>1049.8969726562</ele>
        <time>2015-06-28T11:47:13Z</time>
      </trkpt>
      <trkpt lat="42.43143" lon="8.89313">
        <ele>1049.8969726562</ele>
        <time>2015-06-28T11:47:14Z</time>
      </trkpt>
      <trkpt lat="42.43151" lon="8.89312">
        <ele>1048.935546875</ele>
        <time>2015-06-28T11:47:27Z</time>
      </trkpt>
      <trkpt lat="42.43162" lon="8.89311">
        <ele>1047.0129394531</ele>
        <time>2015-06-28T11:47:47Z</time>
      </trkpt>
      <trkpt lat="42.43168" lon="8.89308">
        <ele>1044.1291503906</ele>
        <time>2015-06-28T11:48:01Z</time>
      </trkpt>
      <trkpt lat="42.43174" lon="8.89301">
        <ele>1042.2065429688</ele>
        <time>2015-06-28T11:48:20Z</time>
      </trkpt>
      <trkpt lat="42.4318" lon="8.89293">
        <ele>1040.2839355469</ele>
        <time>2015-06-28T11:48:40Z</time>
      </trkpt>
      <trkpt lat="42.43185" lon="8.89293">
        <ele>1037.8806152344</ele>
        <time>2015-06-28T11:48:58Z</time>
      </trkpt>
      <trkpt lat="42.43193" lon="8.89293">
        <ele>1034.5158691406</ele>
        <time>2015-06-28T11:49:09Z</time>
      </trkpt>
      <trkpt lat="42.43205" lon="8.8929">
        <ele>1031.1513671875</ele>
        <time>2015-06-28T11:49:34Z</time>
      </trkpt>
      <trkpt lat="42.43216" lon="8.89288">
        <ele>1029.7092285156</ele>
        <time>2015-06-28T11:49:48Z</time>
      </trkpt>
      <trkpt lat="42.43228" lon="8.89289">
        <ele>1028.2673339844</ele>
        <time>2015-06-28T11:50:01Z</time>
      </trkpt>
      <trkpt lat="42.43235" lon="8.89289">
        <ele>1024.9028320312</ele>
        <time>2015-06-28T11:50:15Z</time>
      </trkpt>
      <trkpt lat="42.4324" lon="8.89276">
        <ele>1023.4609375</ele>
        <time>2015-06-28T11:50:32Z</time>
      </trkpt>
      <trkpt lat="42.43247" lon="8.89267">
        <ele>1021.5380859375</ele>
        <time>2015-06-28T11:50:45Z</time>
      </trkpt>
      <trkpt lat="42.43243" lon="8.89267">
        <ele>1019.134765625</ele>
        <time>2015-06-28T11:51:02Z</time>
      </trkpt>
      <trkpt lat="42.43243" lon="8.89259">
        <ele>1016.7314453125</ele>
        <time>2015-06-28T11:51:24Z</time>
      </trkpt>
      <trkpt lat="42.43253" lon="8.89259">
        <ele>1015.2895507812</ele>
        <time>2015-06-28T11:51:38Z</time>
      </trkpt>
      <trkpt lat="42.43261" lon="8.89261">
        <ele>1013.8474121094</ele>
        <time>2015-06-28T11:51:50Z</time>
      </trkpt>
      <trkpt lat="42.43267" lon="8.89264">
        <ele>1011.4443359375</ele>
        <time>2015-06-28T11:52:02Z</time>
      </trkpt>
      <trkpt lat="42.43275" lon="8.89267">
        <ele>1008.5603027344</ele>
        <time>2015-06-28T11:52:17Z</time>
      </trkpt>
      <trkpt lat="42.43282" lon="8.89265">
        <ele>1007.1184082031</ele>
        <time>2015-06-28T11:52:31Z</time>
      </trkpt>
      <trkpt lat="42.43291" lon="8.89272">
        <ele>1003.7536621094</ele>
        <time>2015-06-28T11:52:49Z</time>
      </trkpt>
      <trkpt lat="42.43303" lon="8.89263">
        <ele>1000.3891601562</ele>
        <time>2015-06-28T11:53:13Z</time>
      </trkpt>
      <trkpt lat="42.43308" lon="8.89273">
        <ele>998.94702148438</ele>
        <time>2015-06-28T11:53:24Z</time>
      </trkpt>
      <trkpt lat="42.43317" lon="8.89264">
        <ele>998.46630859375</ele>
        <time>2015-06-28T11:53:37Z</time>
      </trkpt>
      <trkpt lat="42.43322" lon="8.89258">
        <ele>997.50512695312</ele>
        <time>2015-06-28T11:53:49Z</time>
      </trkpt>
      <trkpt lat="42.43329" lon="8.89257">
        <ele>996.06323242188</ele>
        <time>2015-06-28T11:54:06Z</time>
      </trkpt>
      <trkpt lat="42.4334" lon="8.89258">
        <ele>994.140625</ele>
        <time>2015-06-28T11:54:25Z</time>
      </trkpt>
      <trkpt lat="42.43349" lon="8.8925">
        <ele>990.77587890625</ele>
        <time>2015-06-28T11:54:46Z</time>
      </trkpt>
      <trkpt lat="42.43354" lon="8.89253">
        <ele>988.37280273438</ele>
        <time>2015-06-28T11:55:01Z</time>
      </trkpt>
      <trkpt lat="42.43362" lon="8.89246">
        <ele>986.44995117188</ele>
        <time>2015-06-28T11:55:20Z</time>
      </trkpt>
      <trkpt lat="42.43368" lon="8.89248">
        <ele>987.4111328125</ele>
        <time>2015-06-28T11:55:34Z</time>
      </trkpt>
      <trkpt lat="42.43376" lon="8.89238">
        <ele>989.333984375</ele>
        <time>2015-06-28T11:55:49Z</time>
      </trkpt>
      <trkpt lat="42.43384" lon="8.89224">
        <ele>986.93041992188</ele>
        <time>2015-06-28T11:56:05Z</time>
      </trkpt>
      <trkpt lat="42.43387" lon="8.89215">
        <ele>985.96923828125</ele>
        <time>2015-06-28T11:56:24Z</time>
      </trkpt>
      <trkpt lat="42.43395" lon="8.89208">
        <ele>984.04663085938</ele>
        <time>2015-06-28T11:56:39Z</time>
      </trkpt>
      <trkpt lat="42.43397" lon="8.89193">
        <ele>981.64331054688</ele>
        <time>2015-06-28T11:56:52Z</time>
      </trkpt>
      <trkpt lat="42.434" lon="8.89178">
        <ele>979.23999023438</ele>
        <time>2015-06-28T11:57:07Z</time>
      </trkpt>
      <trkpt lat="42.43399" lon="8.89166">
        <ele>978.75952148438</ele>
        <time>2015-06-28T11:57:21Z</time>
      </trkpt>
      <trkpt lat="42.43397" lon="8.89152">
        <ele>978.27880859375</ele>
        <time>2015-06-28T11:57:33Z</time>
      </trkpt>
      <trkpt lat="42.43394" lon="8.89137">
        <ele>975.87548828125</ele>
        <time>2015-06-28T11:57:48Z</time>
      </trkpt>
      <trkpt lat="42.43396" lon="8.89129">
        <ele>974.43359375</ele>
        <time>2015-06-28T11:58:02Z</time>
      </trkpt>
      <trkpt lat="42.43395" lon="8.89125">
        <ele>972.99169921875</ele>
        <time>2015-06-28T11:58:07Z</time>
      </trkpt>
      <trkpt lat="42.43395" lon="8.8911">
        <ele>970.107421875</ele>
        <time>2015-06-28T11:58:25Z</time>
      </trkpt>
      <trkpt lat="42.43396" lon="8.89098">
        <ele>967.2236328125</ele>
        <time>2015-06-28T11:58:38Z</time>
      </trkpt>
      <trkpt lat="42.43403" lon="8.89091">
        <ele>965.30102539062</ele>
        <time>2015-06-28T11:58:52Z</time>
      </trkpt>
      <trkpt lat="42.43409" lon="8.89081">
        <ele>962.4169921875</ele>
        <time>2015-06-28T11:59:08Z</time>
      </trkpt>
      <trkpt lat="42.43413" lon="8.89069">
        <ele>960.97509765625</ele>
        <time>2015-06-28T11:59:20Z</time>
      </trkpt>
      <trkpt lat="42.43417" lon="8.89056">
        <ele>959.533203125</ele>
        <time>2015-06-28T11:59:34Z</time>
      </trkpt>
      <trkpt lat="42.43421" lon="8.89045">
        <ele>957.61059570312</ele>
        <time>2015-06-28T11:59:47Z</time>
      </trkpt>
      <trkpt lat="42.43425" lon="8.89034">
        <ele>956.16845703125</ele>
        <time>2015-06-28T11:59:57Z</time>
      </trkpt>
      <trkpt lat="42.43431" lon="8.8902">
        <ele>954.72631835938</ele>
        <time>2015-06-28T12:00:10Z</time>
      </trkpt>
      <trkpt lat="42.43435" lon="8.89002">
        <ele>951.36181640625</ele>
        <time>2015-06-28T12:00:35Z</time>
      </trkpt>
      <trkpt lat="42.43441" lon="8.88993">
        <ele>948.47778320312</ele>
        <time>2015-06-28T12:00:49Z</time>
      </trkpt>
      <trkpt lat="42.43446" lon="8.88982">
        <ele>947.5166015625</ele>
        <time>2015-06-28T12:01:04Z</time>
      </trkpt>
      <trkpt lat="42.43435" lon="8.8899">
        <ele>946.07470703125</ele>
        <time>2015-06-28T12:01:24Z</time>
      </trkpt>
      <trkpt lat="42.43429" lon="8.88991">
        <ele>943.19067382812</ele>
        <time>2015-06-28T12:01:40Z</time>
      </trkpt>
      <trkpt lat="42.43423" lon="8.88986">
        <ele>941.74877929688</ele>
        <time>2015-06-28T12:01:53Z</time>
      </trkpt>
      <trkpt lat="42.43421" lon="8.8897">
        <ele>938.86474609375</ele>
        <time>2015-06-28T12:02:09Z</time>
      </trkpt>
      <trkpt lat="42.43429" lon="8.88961">
        <ele>937.42260742188</ele>
        <time>2015-06-28T12:02:25Z</time>
      </trkpt>
      <trkpt lat="42.43437" lon="8.88945">
        <ele>934.53881835938</ele>
        <time>2015-06-28T12:02:45Z</time>
      </trkpt>
      <trkpt lat="42.43436" lon="8.88942">
        <ele>932.13549804688</ele>
        <time>2015-06-28T12:03:02Z</time>
      </trkpt>
      <trkpt lat="42.43438" lon="8.88941">
        <ele>931.65478515625</ele>
        <time>2015-06-28T12:03:19Z</time>
      </trkpt>
      <trkpt lat="42.4344" lon="8.88935">
        <ele>930.212890625</ele>
        <time>2015-06-28T12:03:22Z</time>
      </trkpt>
      <trkpt lat="42.4344" lon="8.88933">
        <ele>929.73217773438</ele>
        <time>2015-06-28T12:03:24Z</time>
      </trkpt>
      <trkpt lat="42.43443" lon="8.88929">
        <ele>929.73217773438</ele>
        <time>2015-06-28T12:03:27Z</time>
      </trkpt>
      <trkpt lat="42.43448" lon="8.88912">
        <ele>926.84838867188</ele>
        <time>2015-06-28T12:03:38Z</time>
      </trkpt>
      <trkpt lat="42.43447" lon="8.88914">
        <ele>926.36767578125</ele>
        <time>2015-06-28T12:03:53Z</time>
      </trkpt>
      <trkpt lat="42.43442" lon="8.88911">
        <ele>925.40625</ele>
        <time>2015-06-28T12:04:07Z</time>
      </trkpt>
      <trkpt lat="42.43436" lon="8.88904">
        <ele>925.88696289062</ele>
        <time>2015-06-28T12:04:37Z</time>
      </trkpt>
      <trkpt lat="42.43429" lon="8.88893">
        <ele>926.36767578125</ele>
        <time>2015-06-28T12:04:52Z</time>
      </trkpt>
      <trkpt lat="42.43428" lon="8.88884">
        <ele>926.36767578125</ele>
        <time>2015-06-28T12:05:05Z</time>
      </trkpt>
      <trkpt lat="42.43432" lon="8.88867">
        <ele>926.36767578125</ele>
        <time>2015-06-28T12:05:16Z</time>
      </trkpt>
      <trkpt lat="42.43429" lon="8.88858">
        <ele>925.88696289062</ele>
        <time>2015-06-28T12:05:26Z</time>
      </trkpt>
      <trkpt lat="42.43429" lon="8.88864">
        <ele>926.36767578125</ele>
        <time>2015-06-28T12:05:32Z</time>
      </trkpt>
      <trkpt lat="42.43429" lon="8.88878">
        <ele>925.88696289062</ele>
        <time>2015-06-28T12:05:41Z</time>
      </trkpt>
      <trkpt lat="42.4343" lon="8.88881">
        <ele>925.88696289062</ele>
        <time>2015-06-28T12:05:56Z</time>
      </trkpt>
      <trkpt lat="42.43434" lon="8.88872">
        <ele>925.40625</ele>
        <time>2015-06-28T12:06:03Z</time>
      </trkpt>
      <trkpt lat="42.43433" lon="8.88858">
        <ele>925.40625</ele>
        <time>2015-06-28T12:06:09Z</time>
      </trkpt>
      <trkpt lat="42.43433" lon="8.88826">
        <ele>923.0029296875</ele>
        <time>2015-06-28T12:06:23Z</time>
      </trkpt>
      <trkpt lat="42.43429" lon="8.88822">
        <ele>919.63842773438</ele>
        <time>2015-06-28T12:06:33Z</time>
      </trkpt>
      <trkpt lat="42.4343" lon="8.8882">
        <ele>919.63842773438</ele>
        <time>2015-06-28T12:06:34Z</time>
      </trkpt>
      <trkpt lat="42.43431" lon="8.888">
        <ele>917.23510742188</ele>
        <time>2015-06-28T12:06:48Z</time>
      </trkpt>
      <trkpt lat="42.43433" lon="8.88781">
        <ele>915.3125</ele>
        <time>2015-06-28T12:07:02Z</time>
      </trkpt>
      <trkpt lat="42.43428" lon="8.88773">
        <ele>912.9091796875</ele>
        <time>2015-06-28T12:07:16Z</time>
      </trkpt>
      <trkpt lat="42.43429" lon="8.88761">
        <ele>912.9091796875</ele>
        <time>2015-06-28T12:07:29Z</time>
      </trkpt>
      <trkpt lat="42.43427" lon="8.88742">
        <ele>910.02514648438</ele>
        <time>2015-06-28T12:07:48Z</time>
      </trkpt>
      <trkpt lat="42.43424" lon="8.8873">
        <ele>908.58325195312</ele>
        <time>2015-06-28T12:08:01Z</time>
      </trkpt>
      <trkpt lat="42.43422" lon="8.88715">
        <ele>906.1796875</ele>
        <time>2015-06-28T12:08:12Z</time>
      </trkpt>
      <trkpt lat="42.43422" lon="8.88701">
        <ele>904.73779296875</ele>
        <time>2015-06-28T12:08:30Z</time>
      </trkpt>
      <trkpt lat="42.43423" lon="8.8869">
        <ele>902.81518554688</ele>
        <time>2015-06-28T12:08:43Z</time>
      </trkpt>
      <trkpt lat="42.43419" lon="8.88674">
        <ele>902.33447265625</ele>
        <time>2015-06-28T12:08:53Z</time>
      </trkpt>
      <trkpt lat="42.43418" lon="8.88658">
        <ele>901.37329101562</ele>
        <time>2015-06-28T12:09:07Z</time>
      </trkpt>
      <trkpt lat="42.43413" lon="8.88634">
        <ele>898.96997070312</ele>
        <time>2015-06-28T12:09:28Z</time>
      </trkpt>
      <trkpt lat="42.43416" lon="8.8862">
        <ele>897.52807617188</ele>
        <time>2015-06-28T12:09:40Z</time>
      </trkpt>
      <trkpt lat="42.43416" lon="8.88611">
        <ele>895.12475585938</ele>
        <time>2015-06-28T12:10:04Z</time>
      </trkpt>
      <trkpt lat="42.43415" lon="8.88603">
        <ele>892.7216796875</ele>
        <time>2015-06-28T12:10:22Z</time>
      </trkpt>
      <trkpt lat="42.43411" lon="8.88598">
        <ele>890.79858398438</ele>
        <time>2015-06-28T12:10:36Z</time>
      </trkpt>
      <trkpt lat="42.43414" lon="8.88592">
        <ele>888.87622070312</ele>
        <time>2015-06-28T12:10:43Z</time>
      </trkpt>
      <trkpt lat="42.43414" lon="8.88579">
        <ele>885.51147460938</ele>
        <time>2015-06-28T12:11:02Z</time>
      </trkpt>
      <trkpt lat="42.4341" lon="8.8857">
        <ele>884.55029296875</ele>
        <time>2015-06-28T12:11:13Z</time>
      </trkpt>
      <trkpt lat="42.43406" lon="8.88561">
        <ele>883.10815429688</ele>
        <time>2015-06-28T12:11:23Z</time>
      </trkpt>
      <trkpt lat="42.43403" lon="8.88546">
        <ele>881.66625976562</ele>
        <time>2015-06-28T12:11:33Z</time>
      </trkpt>
      <trkpt lat="42.43404" lon="8.88518">
        <ele>878.3017578125</ele>
        <time>2015-06-28T12:11:51Z</time>
      </trkpt>
      <trkpt lat="42.43396" lon="8.88524">
        <ele>877.82104492188</ele>
        <time>2015-06-28T12:12:08Z</time>
      </trkpt>
      <trkpt lat="42.43399" lon="8.88517">
        <ele>877.82104492188</ele>
        <time>2015-06-28T12:12:14Z</time>
      </trkpt>
      <trkpt lat="42.43399" lon="8.88511">
        <ele>877.82104492188</ele>
        <time>2015-06-28T12:12:17Z</time>
      </trkpt>
      <trkpt lat="42.43401" lon="8.8849">
        <ele>874.45629882812</ele>
        <time>2015-06-28T12:12:33Z</time>
      </trkpt>
      <trkpt lat="42.43402" lon="8.88475">
        <ele>872.05297851562</ele>
        <time>2015-06-28T12:12:49Z</time>
      </trkpt>
      <trkpt lat="42.434" lon="8.8846">
        <ele>870.13037109375</ele>
        <time>2015-06-28T12:13:02Z</time>
      </trkpt>
      <trkpt lat="42.43397" lon="8.88448">
        <ele>869.16918945312</ele>
        <time>2015-06-28T12:13:15Z</time>
      </trkpt>
      <trkpt lat="42.43396" lon="8.88432">
        <ele>866.28515625</ele>
        <time>2015-06-28T12:13:31Z</time>
      </trkpt>
      <trkpt lat="42.43389" lon="8.8842">
        <ele>864.84326171875</ele>
        <time>2015-06-28T12:13:45Z</time>
      </trkpt>
      <trkpt lat="42.43388" lon="8.88407">
        <ele>863.8818359375</ele>
        <time>2015-06-28T12:14:06Z</time>
      </trkpt>
      <trkpt lat="42.43391" lon="8.88395">
        <ele>861.47875976562</ele>
        <time>2015-06-28T12:14:23Z</time>
      </trkpt>
      <trkpt lat="42.43389" lon="8.8837">
        <ele>859.55590820312</ele>
        <time>2015-06-28T12:14:43Z</time>
      </trkpt>
      <trkpt lat="42.43389" lon="8.88367">
        <ele>859.0751953125</ele>
        <time>2015-06-28T12:14:45Z</time>
      </trkpt>
      <trkpt lat="42.43387" lon="8.88355">
        <ele>859.55590820312</ele>
        <time>2015-06-28T12:14:54Z</time>
      </trkpt>
      <trkpt lat="42.43387" lon="8.88339">
        <ele>857.63330078125</ele>
        <time>2015-06-28T12:15:04Z</time>
      </trkpt>
      <trkpt lat="42.43388" lon="8.88336">
        <ele>857.63330078125</ele>
        <time>2015-06-28T12:15:05Z</time>
      </trkpt>
      <trkpt lat="42.43395" lon="8.88315">
        <ele>857.63330078125</ele>
        <time>2015-06-28T12:15:11Z</time>
      </trkpt>
      <trkpt lat="42.43399" lon="8.88299">
        <ele>857.15258789062</ele>
        <time>2015-06-28T12:15:25Z</time>
      </trkpt>
      <trkpt lat="42.434" lon="8.88274">
        <ele>856.671875</ele>
        <time>2015-06-28T12:15:40Z</time>
      </trkpt>
      <trkpt lat="42.43398" lon="8.88263">
        <ele>856.19116210938</ele>
        <time>2015-06-28T12:15:50Z</time>
      </trkpt>
      <trkpt lat="42.43395" lon="8.88253">
        <ele>855.71069335938</ele>
        <time>2015-06-28T12:15:59Z</time>
      </trkpt>
      <trkpt lat="42.43396" lon="8.88233">
        <ele>852.34594726562</ele>
        <time>2015-06-28T12:16:16Z</time>
      </trkpt>
      <trkpt lat="42.43402" lon="8.88215">
        <ele>850.90405273438</ele>
        <time>2015-06-28T12:16:30Z</time>
      </trkpt>
      <trkpt lat="42.43404" lon="8.88203">
        <ele>848.9814453125</ele>
        <time>2015-06-28T12:16:45Z</time>
      </trkpt>
      <trkpt lat="42.43404" lon="8.88185">
        <ele>848.02026367188</ele>
        <time>2015-06-28T12:17:01Z</time>
      </trkpt>
      <trkpt lat="42.43406" lon="8.88172">
        <ele>847.05883789062</ele>
        <time>2015-06-28T12:17:12Z</time>
      </trkpt>
      <trkpt lat="42.43404" lon="8.88142">
        <ele>846.57836914062</ele>
        <time>2015-06-28T12:17:31Z</time>
      </trkpt>
      <trkpt lat="42.43408" lon="8.88128">
        <ele>844.65551757812</ele>
        <time>2015-06-28T12:17:46Z</time>
      </trkpt>
      <trkpt lat="42.43413" lon="8.88116">
        <ele>843.69409179688</ele>
        <time>2015-06-28T12:17:56Z</time>
      </trkpt>
      <trkpt lat="42.43419" lon="8.88098">
        <ele>842.73291015625</ele>
        <time>2015-06-28T12:18:08Z</time>
      </trkpt>
      <trkpt lat="42.43423" lon="8.88081">
        <ele>841.29077148438</ele>
        <time>2015-06-28T12:18:20Z</time>
      </trkpt>
      <trkpt lat="42.43425" lon="8.88077">
        <ele>839.84887695312</ele>
        <time>2015-06-28T12:18:25Z</time>
      </trkpt>
      <trkpt lat="42.43428" lon="8.88058">
        <ele>838.40698242188</ele>
        <time>2015-06-28T12:18:38Z</time>
      </trkpt>
      <trkpt lat="42.4343" lon="8.88045">
        <ele>838.40698242188</ele>
        <time>2015-06-28T12:18:49Z</time>
      </trkpt>
      <trkpt lat="42.43432" lon="8.88041">
        <ele>837.92626953125</ele>
        <time>2015-06-28T12:18:51Z</time>
      </trkpt>
      <trkpt lat="42.43436" lon="8.88014">
        <ele>836.96484375</ele>
        <time>2015-06-28T12:19:07Z</time>
      </trkpt>
      <trkpt lat="42.43436" lon="8.88001">
        <ele>835.52294921875</ele>
        <time>2015-06-28T12:19:17Z</time>
      </trkpt>
      <trkpt lat="42.43435" lon="8.87983">
        <ele>832.15844726562</ele>
        <time>2015-06-28T12:19:36Z</time>
      </trkpt>
      <trkpt lat="42.43438" lon="8.87965">
        <ele>830.71655273438</ele>
        <time>2015-06-28T12:19:48Z</time>
      </trkpt>
      <trkpt lat="42.4344" lon="8.87949">
        <ele>829.2744140625</ele>
        <time>2015-06-28T12:20:00Z</time>
      </trkpt>
      <trkpt lat="42.4344" lon="8.87936">
        <ele>826.87109375</ele>
        <time>2015-06-28T12:20:26Z</time>
      </trkpt>
      <trkpt lat="42.43437" lon="8.87931">
        <ele>824.94848632812</ele>
        <time>2015-06-28T12:20:36Z</time>
      </trkpt>
      <trkpt lat="42.43437" lon="8.87929">
        <ele>823.50659179688</ele>
        <time>2015-06-28T12:20:38Z</time>
      </trkpt>
      <trkpt lat="42.43435" lon="8.87915">
        <ele>822.064453125</ele>
        <time>2015-06-28T12:20:55Z</time>
      </trkpt>
      <trkpt lat="42.4343" lon="8.87902">
        <ele>820.62255859375</ele>
        <time>2015-06-28T12:21:10Z</time>
      </trkpt>
      <trkpt lat="42.43427" lon="8.87895">
        <ele>819.66137695312</ele>
        <time>2015-06-28T12:21:22Z</time>
      </trkpt>
      <trkpt lat="42.43423" lon="8.87884">
        <ele>816.29663085938</ele>
        <time>2015-06-28T12:21:39Z</time>
      </trkpt>
      <trkpt lat="42.43421" lon="8.87872">
        <ele>814.85473632812</ele>
        <time>2015-06-28T12:21:51Z</time>
      </trkpt>
      <trkpt lat="42.43412" lon="8.87856">
        <ele>813.89331054688</ele>
        <time>2015-06-28T12:22:02Z</time>
      </trkpt>
      <trkpt lat="42.43409" lon="8.87853">
        <ele>814.3740234375</ele>
        <time>2015-06-28T12:22:05Z</time>
      </trkpt>
      <trkpt lat="42.43397" lon="8.87837">
        <ele>813.41284179688</ele>
        <time>2015-06-28T12:22:18Z</time>
      </trkpt>
      <trkpt lat="42.43387" lon="8.87822">
        <ele>810.0478515625</ele>
        <time>2015-06-28T12:22:43Z</time>
      </trkpt>
      <trkpt lat="42.43382" lon="8.87806">
        <ele>810.0478515625</ele>
        <time>2015-06-28T12:23:08Z</time>
      </trkpt>
      <trkpt lat="42.43389" lon="8.8777">
        <ele>810.52856445312</ele>
        <time>2015-06-28T12:23:32Z</time>
      </trkpt>
      <trkpt lat="42.43397" lon="8.87758">
        <ele>810.52856445312</ele>
        <time>2015-06-28T12:23:46Z</time>
      </trkpt>
      <trkpt lat="42.43402" lon="8.87751">
        <ele>809.08666992188</ele>
        <time>2015-06-28T12:24:04Z</time>
      </trkpt>
      <trkpt lat="42.4341" lon="8.87744">
        <ele>805.72216796875</ele>
        <time>2015-06-28T12:24:16Z</time>
      </trkpt>
      <trkpt lat="42.43428" lon="8.87731">
        <ele>803.31884765625</ele>
        <time>2015-06-28T12:24:36Z</time>
      </trkpt>
      <trkpt lat="42.43436" lon="8.87723">
        <ele>801.39624023438</ele>
        <time>2015-06-28T12:24:58Z</time>
      </trkpt>
      <trkpt lat="42.43443" lon="8.87715">
        <ele>799.4736328125</ele>
        <time>2015-06-28T12:25:11Z</time>
      </trkpt>
      <trkpt lat="42.4345" lon="8.87708">
        <ele>796.10913085938</ele>
        <time>2015-06-28T12:25:30Z</time>
      </trkpt>
      <trkpt lat="42.4346" lon="8.87701">
        <ele>794.18627929688</ele>
        <time>2015-06-28T12:25:46Z</time>
      </trkpt>
      <trkpt lat="42.43471" lon="8.87699">
        <ele>791.30224609375</ele>
        <time>2015-06-28T12:26:04Z</time>
      </trkpt>
      <trkpt lat="42.43477" lon="8.87693">
        <ele>788.89916992188</ele>
        <time>2015-06-28T12:26:17Z</time>
      </trkpt>
      <trkpt lat="42.43486" lon="8.87689">
        <ele>788.41845703125</ele>
        <time>2015-06-28T12:26:34Z</time>
      </trkpt>
      <trkpt lat="42.43497" lon="8.87679">
        <ele>785.53442382812</ele>
        <time>2015-06-28T12:26:49Z</time>
      </trkpt>
      <trkpt lat="42.43505" lon="8.87675">
        <ele>783.13110351562</ele>
        <time>2015-06-28T12:27:04Z</time>
      </trkpt>
      <trkpt lat="42.43513" lon="8.87672">
        <ele>780.24731445312</ele>
        <time>2015-06-28T12:27:20Z</time>
      </trkpt>
      <trkpt lat="42.43531" lon="8.87661">
        <ele>776.88256835938</ele>
        <time>2015-06-28T12:27:58Z</time>
      </trkpt>
      <trkpt lat="42.43546" lon="8.87648">
        <ele>774.9599609375</ele>
        <time>2015-06-28T12:28:18Z</time>
      </trkpt>
      <trkpt lat="42.43552" lon="8.87634">
        <ele>773.99853515625</ele>
        <time>2015-06-28T12:28:28Z</time>
      </trkpt>
      <trkpt lat="42.43552" lon="8.87618">
        <ele>770.63403320312</ele>
        <time>2015-06-28T12:28:48Z</time>
      </trkpt>
      <trkpt lat="42.43566" lon="8.87584">
        <ele>766.78881835938</ele>
        <time>2015-06-28T12:29:19Z</time>
      </trkpt>
      <trkpt lat="42.43574" lon="8.87573">
        <ele>765.82763671875</ele>
        <time>2015-06-28T12:29:31Z</time>
      </trkpt>
      <trkpt lat="42.43581" lon="8.87559">
        <ele>764.38549804688</ele>
        <time>2015-06-28T12:29:42Z</time>
      </trkpt>
      <trkpt lat="42.43582" lon="8.87555">
        <ele>764.38549804688</ele>
        <time>2015-06-28T12:29:44Z</time>
      </trkpt>
      <trkpt lat="42.43585" lon="8.87548">
        <ele>764.38549804688</ele>
        <time>2015-06-28T12:29:48Z</time>
      </trkpt>
      <trkpt lat="42.43599" lon="8.87533">
        <ele>765.34692382812</ele>
        <time>2015-06-28T12:30:01Z</time>
      </trkpt>
      <trkpt lat="42.436" lon="8.87532">
        <ele>764.8662109375</ele>
        <time>2015-06-28T12:30:02Z</time>
      </trkpt>
      <trkpt lat="42.43608" lon="8.87514">
        <ele>763.42407226562</ele>
        <time>2015-06-28T12:30:16Z</time>
      </trkpt>
      <trkpt lat="42.43611" lon="8.87498">
        <ele>763.90454101562</ele>
        <time>2015-06-28T12:30:35Z</time>
      </trkpt>
      <trkpt lat="42.43616" lon="8.87481">
        <ele>761.02075195312</ele>
        <time>2015-06-28T12:30:50Z</time>
      </trkpt>
      <trkpt lat="42.43625" lon="8.87447">
        <ele>758.13696289062</ele>
        <time>2015-06-28T12:31:25Z</time>
      </trkpt>
      <trkpt lat="42.43638" lon="8.87421">
        <ele>756.69482421875</ele>
        <time>2015-06-28T12:31:41Z</time>
      </trkpt>
      <trkpt lat="42.43646" lon="8.87412">
        <ele>755.73364257812</ele>
        <time>2015-06-28T12:31:53Z</time>
      </trkpt>
      <trkpt lat="42.43657" lon="8.87397">
        <ele>753.81103515625</ele>
        <time>2015-06-28T12:32:18Z</time>
      </trkpt>
      <trkpt lat="42.43673" lon="8.8739">
        <ele>750.44653320312</ele>
        <time>2015-06-28T12:32:40Z</time>
      </trkpt>
      <trkpt lat="42.4368" lon="8.87378">
        <ele>747.56225585938</ele>
        <time>2015-06-28T12:33:00Z</time>
      </trkpt>
      <trkpt lat="42.43704" lon="8.87366">
        <ele>744.19775390625</ele>
        <time>2015-06-28T12:33:38Z</time>
      </trkpt>
      <trkpt lat="42.43723" lon="8.87353">
        <ele>741.31372070312</ele>
        <time>2015-06-28T12:34:03Z</time>
      </trkpt>
      <trkpt lat="42.43735" lon="8.87343">
        <ele>737.94921875</ele>
        <time>2015-06-28T12:34:22Z</time>
      </trkpt>
      <trkpt lat="42.43744" lon="8.87332">
        <ele>735.0654296875</ele>
        <time>2015-06-28T12:34:41Z</time>
      </trkpt>
      <trkpt lat="42.43755" lon="8.87325">
        <ele>731.70043945312</ele>
        <time>2015-06-28T12:35:11Z</time>
      </trkpt>
      <trkpt lat="42.43764" lon="8.87323">
        <ele>730.25854492188</ele>
        <time>2015-06-28T12:35:23Z</time>
      </trkpt>
      <trkpt lat="42.43772" lon="8.87327">
        <ele>729.29711914062</ele>
        <time>2015-06-28T12:35:34Z</time>
      </trkpt>
      <trkpt lat="42.43779" lon="8.87323">
        <ele>729.29711914062</ele>
        <time>2015-06-28T12:35:43Z</time>
      </trkpt>
      <trkpt lat="42.43799" lon="8.8732">
        <ele>727.37475585938</ele>
        <time>2015-06-28T12:36:00Z</time>
      </trkpt>
      <trkpt lat="42.43806" lon="8.87316">
        <ele>726.41333007812</ele>
        <time>2015-06-28T12:36:11Z</time>
      </trkpt>
      <trkpt lat="42.43817" lon="8.87311">
        <ele>726.41333007812</ele>
        <time>2015-06-28T12:36:37Z</time>
      </trkpt>
      <trkpt lat="42.43819" lon="8.8731">
        <ele>724.49072265625</ele>
        <time>2015-06-28T12:36:40Z</time>
      </trkpt>
      <trkpt lat="42.43825" lon="8.87308">
        <ele>724.49072265625</ele>
        <time>2015-06-28T12:36:48Z</time>
      </trkpt>
      <trkpt lat="42.43847" lon="8.87293">
        <ele>723.52954101562</ele>
        <time>2015-06-28T12:37:08Z</time>
      </trkpt>
      <trkpt lat="42.43854" lon="8.87277">
        <ele>722.56811523438</ele>
        <time>2015-06-28T12:37:19Z</time>
      </trkpt>
      <trkpt lat="42.43857" lon="8.87268">
        <ele>723.048828125</ele>
        <time>2015-06-28T12:37:25Z</time>
      </trkpt>
      <trkpt lat="42.43863" lon="8.87255">
        <ele>723.048828125</ele>
        <time>2015-06-28T12:37:35Z</time>
      </trkpt>
      <trkpt lat="42.43866" lon="8.8724">
        <ele>722.08740234375</ele>
        <time>2015-06-28T12:37:47Z</time>
      </trkpt>
      <trkpt lat="42.43868" lon="8.87225">
        <ele>720.16479492188</ele>
        <time>2015-06-28T12:37:59Z</time>
      </trkpt>
      <trkpt lat="42.43869" lon="8.87209">
        <ele>718.2421875</ele>
        <time>2015-06-28T12:38:10Z</time>
      </trkpt>
      <trkpt lat="42.43877" lon="8.8719">
        <ele>716.31958007812</ele>
        <time>2015-06-28T12:38:26Z</time>
      </trkpt>
      <trkpt lat="42.43882" lon="8.87173">
        <ele>712.95483398438</ele>
        <time>2015-06-28T12:38:43Z</time>
      </trkpt>
      <trkpt lat="42.43883" lon="8.87169">
        <ele>711.99365234375</ele>
        <time>2015-06-28T12:38:48Z</time>
      </trkpt>
      <trkpt lat="42.43886" lon="8.87161">
        <ele>711.51293945312</ele>
        <time>2015-06-28T12:39:00Z</time>
      </trkpt>
      <trkpt lat="42.43884" lon="8.87151">
        <ele>710.07080078125</ele>
        <time>2015-06-28T12:39:13Z</time>
      </trkpt>
      <trkpt lat="42.43881" lon="8.8714">
        <ele>709.10961914062</ele>
        <time>2015-06-28T12:39:24Z</time>
      </trkpt>
      <trkpt lat="42.43876" lon="8.87126">
        <ele>708.1484375</ele>
        <time>2015-06-28T12:39:41Z</time>
      </trkpt>
      <trkpt lat="42.43872" lon="8.87118">
        <ele>705.7451171875</ele>
        <time>2015-06-28T12:39:53Z</time>
      </trkpt>
      <trkpt lat="42.43863" lon="8.87103">
        <ele>704.78369140625</ele>
        <time>2015-06-28T12:40:05Z</time>
      </trkpt>
      <trkpt lat="42.43859" lon="8.87084">
        <ele>703.82250976562</ele>
        <time>2015-06-28T12:40:17Z</time>
      </trkpt>
      <trkpt lat="42.43857" lon="8.87076">
        <ele>702.38037109375</ele>
        <time>2015-06-28T12:40:26Z</time>
      </trkpt>
      <trkpt lat="42.43858" lon="8.87065">
        <ele>699.015625</ele>
        <time>2015-06-28T12:40:48Z</time>
      </trkpt>
      <trkpt lat="42.43861" lon="8.87047">
        <ele>695.65112304688</ele>
        <time>2015-06-28T12:41:14Z</time>
      </trkpt>
      <trkpt lat="42.43854" lon="8.87047">
        <ele>694.68969726562</ele>
        <time>2015-06-28T12:41:19Z</time>
      </trkpt>
      <trkpt lat="42.43863" lon="8.87038">
        <ele>698.05444335938</ele>
        <time>2015-06-28T12:41:53Z</time>
      </trkpt>
      <trkpt lat="42.43867" lon="8.87035">
        <ele>699.015625</ele>
        <time>2015-06-28T12:41:58Z</time>
      </trkpt>
      <trkpt lat="42.43878" lon="8.87029">
        <ele>697.57373046875</ele>
        <time>2015-06-28T12:42:09Z</time>
      </trkpt>
      <trkpt lat="42.43889" lon="8.8703">
        <ele>694.68969726562</ele>
        <time>2015-06-28T12:42:20Z</time>
      </trkpt>
      <trkpt lat="42.43891" lon="8.87031">
        <ele>694.68969726562</ele>
        <time>2015-06-28T12:42:21Z</time>
      </trkpt>
      <trkpt lat="42.43895" lon="8.87031">
        <ele>693.24780273438</ele>
        <time>2015-06-28T12:42:26Z</time>
      </trkpt>
      <trkpt lat="42.43905" lon="8.87031">
        <ele>692.76733398438</ele>
        <time>2015-06-28T12:42:35Z</time>
      </trkpt>
      <trkpt lat="42.4391" lon="8.87025">
        <ele>689.40258789062</ele>
        <time>2015-06-28T12:42:51Z</time>
      </trkpt>
      <trkpt lat="42.43919" lon="8.87021">
        <ele>686.51879882812</ele>
        <time>2015-06-28T12:43:03Z</time>
      </trkpt>
      <trkpt lat="42.43933" lon="8.87018">
        <ele>683.63452148438</ele>
        <time>2015-06-28T12:43:22Z</time>
      </trkpt>
      <trkpt lat="42.43934" lon="8.87004">
        <ele>680.75073242188</ele>
        <time>2015-06-28T12:43:43Z</time>
      </trkpt>
      <trkpt lat="42.43939" lon="8.86993">
        <ele>677.86669921875</ele>
        <time>2015-06-28T12:44:07Z</time>
      </trkpt>
      <trkpt lat="42.43947" lon="8.86984">
        <ele>675.94409179688</ele>
        <time>2015-06-28T12:44:20Z</time>
      </trkpt>
      <trkpt lat="42.43954" lon="8.86975">
        <ele>674.021484375</ele>
        <time>2015-06-28T12:44:31Z</time>
      </trkpt>
      <trkpt lat="42.43963" lon="8.86961">
        <ele>673.06030273438</ele>
        <time>2015-06-28T12:44:44Z</time>
      </trkpt>
      <trkpt lat="42.43965" lon="8.86952">
        <ele>669.69580078125</ele>
        <time>2015-06-28T12:44:58Z</time>
      </trkpt>
      <trkpt lat="42.4398" lon="8.86938">
        <ele>667.29223632812</ele>
        <time>2015-06-28T12:45:15Z</time>
      </trkpt>
      <trkpt lat="42.44002" lon="8.86937">
        <ele>664.408203125</ele>
        <time>2015-06-28T12:46:03Z</time>
      </trkpt>
      <trkpt lat="42.44004" lon="8.86937">
        <ele>664.88891601562</ele>
        <time>2015-06-28T12:46:04Z</time>
      </trkpt>
      <trkpt lat="42.44005" lon="8.86933">
        <ele>664.408203125</ele>
        <time>2015-06-28T12:46:17Z</time>
      </trkpt>
      <trkpt lat="42.44016" lon="8.86935">
        <ele>661.04370117188</ele>
        <time>2015-06-28T12:46:28Z</time>
      </trkpt>
      <trkpt lat="42.44016" lon="8.86934">
        <ele>660.56298828125</ele>
        <time>2015-06-28T12:46:30Z</time>
      </trkpt>
      <trkpt lat="42.44019" lon="8.86933">
        <ele>658.15991210938</ele>
        <time>2015-06-28T12:46:36Z</time>
      </trkpt>
      <trkpt lat="42.44022" lon="8.86928">
        <ele>654.79516601562</ele>
        <time>2015-06-28T12:47:01Z</time>
      </trkpt>
      <trkpt lat="42.44036" lon="8.86929">
        <ele>653.35327148438</ele>
        <time>2015-06-28T12:47:19Z</time>
      </trkpt>
      <trkpt lat="42.44038" lon="8.86919">
        <ele>649.98852539062</ele>
        <time>2015-06-28T12:48:01Z</time>
      </trkpt>
      <trkpt lat="42.44047" lon="8.86919">
        <ele>646.6240234375</ele>
        <time>2015-06-28T12:48:21Z</time>
      </trkpt>
      <trkpt lat="42.44054" lon="8.86912">
        <ele>644.220703125</ele>
        <time>2015-06-28T12:48:39Z</time>
      </trkpt>
      <trkpt lat="42.44055" lon="8.86909">
        <ele>643.25927734375</ele>
        <time>2015-06-28T12:48:43Z</time>
      </trkpt>
      <trkpt lat="42.4406" lon="8.86898">
        <ele>639.89477539062</ele>
        <time>2015-06-28T12:49:03Z</time>
      </trkpt>
      <trkpt lat="42.44068" lon="8.86885">
        <ele>638.93359375</ele>
        <time>2015-06-28T12:49:20Z</time>
      </trkpt>
      <trkpt lat="42.4407" lon="8.86881">
        <ele>639.4140625</ele>
        <time>2015-06-28T12:49:23Z</time>
      </trkpt>
      <trkpt lat="42.44079" lon="8.86855">
        <ele>639.4140625</ele>
        <time>2015-06-28T12:49:39Z</time>
      </trkpt>
      <trkpt lat="42.44091" lon="8.86826">
        <ele>639.89477539062</ele>
        <time>2015-06-28T12:49:57Z</time>
      </trkpt>
      <trkpt lat="42.44094" lon="8.86812">
        <ele>637.97216796875</ele>
        <time>2015-06-28T12:50:08Z</time>
      </trkpt>
      <trkpt lat="42.44092" lon="8.86788">
        <ele>635.56860351562</ele>
        <time>2015-06-28T12:50:22Z</time>
      </trkpt>
      <trkpt lat="42.44095" lon="8.86763">
        <ele>633.64599609375</ele>
        <time>2015-06-28T12:50:38Z</time>
      </trkpt>
      <trkpt lat="42.44101" lon="8.86745">
        <ele>632.2041015625</ele>
        <time>2015-06-28T12:50:52Z</time>
      </trkpt>
      <trkpt lat="42.44119" lon="8.86722">
        <ele>629.80078125</ele>
        <time>2015-06-28T12:51:08Z</time>
      </trkpt>
      <trkpt lat="42.44128" lon="8.86699">
        <ele>626.9169921875</ele>
        <time>2015-06-28T12:51:25Z</time>
      </trkpt>
      <trkpt lat="42.44134" lon="8.86682">
        <ele>625.47485351562</ele>
        <time>2015-06-28T12:51:37Z</time>
      </trkpt>
      <trkpt lat="42.44142" lon="8.86662">
        <ele>622.59106445312</ele>
        <time>2015-06-28T12:51:54Z</time>
      </trkpt>
      <trkpt lat="42.44134" lon="8.86651">
        <ele>621.62963867188</ele>
        <time>2015-06-28T12:52:01Z</time>
      </trkpt>
      <trkpt lat="42.44118" lon="8.86631">
        <ele>620.18774414062</ele>
        <time>2015-06-28T12:52:12Z</time>
      </trkpt>
      <trkpt lat="42.44115" lon="8.86623">
        <ele>619.70703125</ele>
        <time>2015-06-28T12:52:17Z</time>
      </trkpt>
      <trkpt lat="42.4412" lon="8.86604">
        <ele>616.82299804688</ele>
        <time>2015-06-28T12:52:29Z</time>
      </trkpt>
      <trkpt lat="42.44126" lon="8.86589">
        <ele>615.86181640625</ele>
        <time>2015-06-28T12:52:40Z</time>
      </trkpt>
      <trkpt lat="42.44133" lon="8.86574">
        <ele>613.45849609375</ele>
        <time>2015-06-28T12:52:50Z</time>
      </trkpt>
      <trkpt lat="42.4413" lon="8.86554">
        <ele>612.0166015625</ele>
        <time>2015-06-28T12:53:02Z</time>
      </trkpt>
      <trkpt lat="42.44125" lon="8.86535">
        <ele>611.53588867188</ele>
        <time>2015-06-28T12:53:13Z</time>
      </trkpt>
      <trkpt lat="42.44118" lon="8.86516">
        <ele>610.09375</ele>
        <time>2015-06-28T12:53:24Z</time>
      </trkpt>
      <trkpt lat="42.44117" lon="8.86497">
        <ele>608.65185546875</ele>
        <time>2015-06-28T12:53:37Z</time>
      </trkpt>
      <trkpt lat="42.4412" lon="8.86481">
        <ele>606.72924804688</ele>
        <time>2015-06-28T12:53:45Z</time>
      </trkpt>
      <trkpt lat="42.44126" lon="8.86468">
        <ele>605.76806640625</ele>
        <time>2015-06-28T12:53:51Z</time>
      </trkpt>
      <trkpt lat="42.44127" lon="8.86452">
        <ele>603.84521484375</ele>
        <time>2015-06-28T12:54:03Z</time>
      </trkpt>
      <trkpt lat="42.44123" lon="8.86436">
        <ele>601.44189453125</ele>
        <time>2015-06-28T12:54:17Z</time>
      </trkpt>
      <trkpt lat="42.44116" lon="8.86427">
        <ele>600.96118164062</ele>
        <time>2015-06-28T12:54:22Z</time>
      </trkpt>
      <trkpt lat="42.44108" lon="8.86415">
        <ele>599.51928710938</ele>
        <time>2015-06-28T12:54:29Z</time>
      </trkpt>
      <trkpt lat="42.44114" lon="8.864">
        <ele>598.07739257812</ele>
        <time>2015-06-28T12:54:37Z</time>
      </trkpt>
      <trkpt lat="42.4411" lon="8.86381">
        <ele>597.5966796875</ele>
        <time>2015-06-28T12:54:47Z</time>
      </trkpt>
      <trkpt lat="42.44109" lon="8.8637">
        <ele>597.5966796875</ele>
        <time>2015-06-28T12:54:52Z</time>
      </trkpt>
      <trkpt lat="42.44124" lon="8.86343">
        <ele>597.11596679688</ele>
        <time>2015-06-28T12:55:06Z</time>
      </trkpt>
      <trkpt lat="42.44125" lon="8.86332">
        <ele>597.5966796875</ele>
        <time>2015-06-28T12:55:13Z</time>
      </trkpt>
      <trkpt lat="42.44138" lon="8.86313">
        <ele>596.63549804688</ele>
        <time>2015-06-28T12:55:26Z</time>
      </trkpt>
      <trkpt lat="42.44129" lon="8.8629">
        <ele>595.67407226562</ele>
        <time>2015-06-28T12:55:41Z</time>
      </trkpt>
      <trkpt lat="42.44132" lon="8.86268">
        <ele>593.27075195312</ele>
        <time>2015-06-28T12:55:55Z</time>
      </trkpt>
      <trkpt lat="42.44137" lon="8.8625">
        <ele>589.90625</ele>
        <time>2015-06-28T12:56:06Z</time>
      </trkpt>
      <trkpt lat="42.44143" lon="8.86238">
        <ele>589.42553710938</ele>
        <time>2015-06-28T12:56:14Z</time>
      </trkpt>
      <trkpt lat="42.44152" lon="8.86217">
        <ele>586.06079101562</ele>
        <time>2015-06-28T12:56:30Z</time>
      </trkpt>
      <trkpt lat="42.44154" lon="8.86207">
        <ele>585.099609375</ele>
        <time>2015-06-28T12:56:35Z</time>
      </trkpt>
      <trkpt lat="42.44171" lon="8.86175">
        <ele>581.73486328125</ele>
        <time>2015-06-28T12:56:56Z</time>
      </trkpt>
      <trkpt lat="42.44173" lon="8.86173">
        <ele>581.73486328125</ele>
        <time>2015-06-28T12:56:57Z</time>
      </trkpt>
      <trkpt lat="42.44177" lon="8.86172">
        <ele>581.73486328125</ele>
        <time>2015-06-28T12:57:00Z</time>
      </trkpt>
      <trkpt lat="42.4418" lon="8.86166">
        <ele>580.77368164062</ele>
        <time>2015-06-28T12:57:04Z</time>
      </trkpt>
      <trkpt lat="42.4418" lon="8.86154">
        <ele>580.29296875</ele>
        <time>2015-06-28T12:57:12Z</time>
      </trkpt>
      <trkpt lat="42.4418" lon="8.86142">
        <ele>578.85107421875</ele>
        <time>2015-06-28T12:57:20Z</time>
      </trkpt>
      <trkpt lat="42.44182" lon="8.86139">
        <ele>578.37036132812</ele>
        <time>2015-06-28T12:57:22Z</time>
      </trkpt>
      <trkpt lat="42.44187" lon="8.86134">
        <ele>578.37036132812</ele>
        <time>2015-06-28T12:57:26Z</time>
      </trkpt>
      <trkpt lat="42.44191" lon="8.86125">
        <ele>578.37036132812</ele>
        <time>2015-06-28T12:57:30Z</time>
      </trkpt>
      <trkpt lat="42.44198" lon="8.86115">
        <ele>577.8896484375</ele>
        <time>2015-06-28T12:57:35Z</time>
      </trkpt>
      <trkpt lat="42.44209" lon="8.86106">
        <ele>576.92846679688</ele>
        <time>2015-06-28T12:57:46Z</time>
      </trkpt>
      <trkpt lat="42.4421" lon="8.86101">
        <ele>576.44775390625</ele>
        <time>2015-06-28T12:57:50Z</time>
      </trkpt>
      <trkpt lat="42.4419" lon="8.8608">
        <ele>575.96704101562</ele>
        <time>2015-06-28T12:58:02Z</time>
      </trkpt>
      <trkpt lat="42.44176" lon="8.86068">
        <ele>574.04443359375</ele>
        <time>2015-06-28T12:58:13Z</time>
      </trkpt>
      <trkpt lat="42.44152" lon="8.86053">
        <ele>573.08325195312</ele>
        <time>2015-06-28T12:58:24Z</time>
      </trkpt>
      <trkpt lat="42.44133" lon="8.86043">
        <ele>572.12182617188</ele>
        <time>2015-06-28T12:58:33Z</time>
      </trkpt>
      <trkpt lat="42.44128" lon="8.86039">
        <ele>572.12182617188</ele>
        <time>2015-06-28T12:58:36Z</time>
      </trkpt>
      <trkpt lat="42.44129" lon="8.86034">
        <ele>571.64086914062</ele>
        <time>2015-06-28T12:58:40Z</time>
      </trkpt>
      <trkpt lat="42.44118" lon="8.86007">
        <ele>569.71850585938</ele>
        <time>2015-06-28T12:58:57Z</time>
      </trkpt>
      <trkpt lat="42.44123" lon="8.85992">
        <ele>568.75708007812</ele>
        <time>2015-06-28T12:59:09Z</time>
      </trkpt>
      <trkpt lat="42.44127" lon="8.85986">
        <ele>568.75708007812</ele>
        <time>2015-06-28T12:59:13Z</time>
      </trkpt>
      <trkpt lat="42.44131" lon="8.85974">
        <ele>567.31518554688</ele>
        <time>2015-06-28T12:59:21Z</time>
      </trkpt>
      <trkpt lat="42.44131" lon="8.85967">
        <ele>566.35375976562</ele>
        <time>2015-06-28T12:59:25Z</time>
      </trkpt>
      <trkpt lat="42.4412" lon="8.85942">
        <ele>564.91186523438</ele>
        <time>2015-06-28T12:59:37Z</time>
      </trkpt>
      <trkpt lat="42.44104" lon="8.85928">
        <ele>563.46997070312</ele>
        <time>2015-06-28T12:59:46Z</time>
      </trkpt>
      <trkpt lat="42.44099" lon="8.85915">
        <ele>562.02807617188</ele>
        <time>2015-06-28T12:59:52Z</time>
      </trkpt>
      <trkpt lat="42.44092" lon="8.85891">
        <ele>560.10522460938</ele>
        <time>2015-06-28T13:00:04Z</time>
      </trkpt>
      <trkpt lat="42.44102" lon="8.85874">
        <ele>558.66333007812</ele>
        <time>2015-06-28T13:00:15Z</time>
      </trkpt>
      <trkpt lat="42.44091" lon="8.85862">
        <ele>557.22143554688</ele>
        <time>2015-06-28T13:00:24Z</time>
      </trkpt>
      <trkpt lat="42.44091" lon="8.85856">
        <ele>557.7021484375</ele>
        <time>2015-06-28T13:00:28Z</time>
      </trkpt>
      <trkpt lat="42.44092" lon="8.85836">
        <ele>555.779296875</ele>
        <time>2015-06-28T13:00:39Z</time>
      </trkpt>
      <trkpt lat="42.44105" lon="8.85843">
        <ele>556.74072265625</ele>
        <time>2015-06-28T13:00:51Z</time>
      </trkpt>
      <trkpt lat="42.44109" lon="8.85841">
        <ele>556.26000976562</ele>
        <time>2015-06-28T13:00:54Z</time>
      </trkpt>
      <trkpt lat="42.44098" lon="8.8582">
        <ele>555.29858398438</ele>
        <time>2015-06-28T13:01:07Z</time>
      </trkpt>
      <trkpt lat="42.44086" lon="8.85811">
        <ele>554.81787109375</ele>
        <time>2015-06-28T13:01:15Z</time>
      </trkpt>
      <trkpt lat="42.44079" lon="8.85797">
        <ele>553.85668945312</ele>
        <time>2015-06-28T13:01:23Z</time>
      </trkpt>
      <trkpt lat="42.44079" lon="8.85787">
        <ele>553.3759765625</ele>
        <time>2015-06-28T13:01:30Z</time>
      </trkpt>
      <trkpt lat="42.44083" lon="8.85783">
        <ele>552.41455078125</ele>
        <time>2015-06-28T13:01:32Z</time>
      </trkpt>
      <trkpt lat="42.44084" lon="8.85764">
        <ele>551.45336914062</ele>
        <time>2015-06-28T13:01:43Z</time>
      </trkpt>
      <trkpt lat="42.4408" lon="8.85751">
        <ele>552.41455078125</ele>
        <time>2015-06-28T13:01:49Z</time>
      </trkpt>
      <trkpt lat="42.44072" lon="8.85739">
        <ele>551.45336914062</ele>
        <time>2015-06-28T13:01:54Z</time>
      </trkpt>
      <trkpt lat="42.44069" lon="8.85731">
        <ele>550.97265625</ele>
        <time>2015-06-28T13:01:58Z</time>
      </trkpt>
      <trkpt lat="42.44062" lon="8.85716">
        <ele>551.45336914062</ele>
        <time>2015-06-28T13:02:08Z</time>
      </trkpt>
      <trkpt lat="42.4406" lon="8.85715">
        <ele>550.97265625</ele>
        <time>2015-06-28T13:02:09Z</time>
      </trkpt>
      <trkpt lat="42.44046" lon="8.85695">
        <ele>551.45336914062</ele>
        <time>2015-06-28T13:02:20Z</time>
      </trkpt>
      <trkpt lat="42.44047" lon="8.85691">
        <ele>551.45336914062</ele>
        <time>2015-06-28T13:02:23Z</time>
      </trkpt>
      <trkpt lat="42.44054" lon="8.85666">
        <ele>551.45336914062</ele>
        <time>2015-06-28T13:02:37Z</time>
      </trkpt>
      <trkpt lat="42.44073" lon="8.85644">
        <ele>550.97265625</ele>
        <time>2015-06-28T13:02:50Z</time>
      </trkpt>
      <trkpt lat="42.44084" lon="8.85623">
        <ele>550.4921875</ele>
        <time>2015-06-28T13:03:03Z</time>
      </trkpt>
      <trkpt lat="42.44084" lon="8.85618">
        <ele>550.01147460938</ele>
        <time>2015-06-28T13:03:06Z</time>
      </trkpt>
      <trkpt lat="42.44103" lon="8.85594">
        <ele>549.53076171875</ele>
        <time>2015-06-28T13:03:21Z</time>
      </trkpt>
      <trkpt lat="42.44105" lon="8.85576">
        <ele>549.05004882812</ele>
        <time>2015-06-28T13:03:32Z</time>
      </trkpt>
      <trkpt lat="42.44113" lon="8.85563">
        <ele>549.05004882812</ele>
        <time>2015-06-28T13:03:40Z</time>
      </trkpt>
      <trkpt lat="42.44113" lon="8.85555">
        <ele>549.05004882812</ele>
        <time>2015-06-28T13:03:46Z</time>
      </trkpt>
      <trkpt lat="42.44125" lon="8.85536">
        <ele>549.05004882812</ele>
        <time>2015-06-28T13:03:57Z</time>
      </trkpt>
      <trkpt lat="42.44129" lon="8.85522">
        <ele>549.53076171875</ele>
        <time>2015-06-28T13:04:07Z</time>
      </trkpt>
      <trkpt lat="42.44144" lon="8.85509">
        <ele>550.01147460938</ele>
        <time>2015-06-28T13:04:19Z</time>
      </trkpt>
      <trkpt lat="42.44151" lon="8.85491">
        <ele>549.53076171875</ele>
        <time>2015-06-28T13:04:32Z</time>
      </trkpt>
      <trkpt lat="42.44158" lon="8.8548">
        <ele>549.53076171875</ele>
        <time>2015-06-28T13:04:40Z</time>
      </trkpt>
      <trkpt lat="42.44183" lon="8.85476">
        <ele>550.4921875</ele>
        <time>2015-06-28T13:04:56Z</time>
      </trkpt>
      <trkpt lat="42.44183" lon="8.85475">
        <ele>550.97265625</ele>
        <time>2015-06-28T13:05:08Z</time>
      </trkpt>
      <trkpt lat="42.44196" lon="8.85474">
        <ele>550.97265625</ele>
        <time>2015-06-28T13:05:19Z</time>
      </trkpt>
      <trkpt lat="42.44203" lon="8.85473">
        <ele>550.97265625</ele>
        <time>2015-06-28T13:05:25Z</time>
      </trkpt>
      <trkpt lat="42.44207" lon="8.85471">
        <ele>551.45336914062</ele>
        <time>2015-06-28T13:05:29Z</time>
      </trkpt>
      <trkpt lat="42.44217" lon="8.85463">
        <ele>551.45336914062</ele>
        <time>2015-06-28T13:05:38Z</time>
      </trkpt>
      <trkpt lat="42.44231" lon="8.85449">
        <ele>551.93408203125</ele>
        <time>2015-06-28T13:05:49Z</time>
      </trkpt>
      <trkpt lat="42.44235" lon="8.85443">
        <ele>552.89526367188</ele>
        <time>2015-06-28T13:05:53Z</time>
      </trkpt>
      <trkpt lat="42.44242" lon="8.85439">
        <ele>552.41455078125</ele>
        <time>2015-06-28T13:05:58Z</time>
      </trkpt>
      <trkpt lat="42.44241" lon="8.85442">
        <ele>552.41455078125</ele>
        <time>2015-06-28T13:06:00Z</time>
      </trkpt>
      <trkpt lat="42.44241" lon="8.85452">
        <ele>550.4921875</ele>
        <time>2015-06-28T13:06:13Z</time>
      </trkpt>
      <trkpt lat="42.44244" lon="8.85455">
        <ele>550.97265625</ele>
        <time>2015-06-28T13:06:30Z</time>
      </trkpt>
    </trkseg>
  </trk>
</gpx>